Flight Track Log - Related Links

Times and Time Zones

All times are in EDT time to prevent confusion due to time zone crossing. See the DAL268 flight status page for this flight to view local times or setup timezone preferences in your user account.

Time Position Orientation Groundspeed Altitude Reporting Facility
EDT Latitude Longitude Course Direction KTS MPH feet Rate Location/Type
Wed 09:40:26 PM 40.6390 -73.7720 217° Southwest 120 138  Level FlightAware ADS-B
Wed 09:40:50 PM 40.6240 -73.7840 211° Southwest 182 209 100 1,050 Climbing FlightAware ADS-B
Wed 09:41:06 PM 40.6120 -73.7940 212° Southwest 178 205 700 2,000 Climbing FlightAware ADS-B
Wed 09:41:26 PM 40.5980 -73.8050 211° Southwest 182 209 1,300 1,650 Climbing FlightAware ADS-B
Wed 09:41:46 PM 40.5830 -73.8180 213° Southwest 185 213 1,800 1,297 Climbing FlightAware ADS-B
Wed 09:42:03 PM 40.5700 -73.8270 208° Southwest 191 220 2,100 900 Climbing FlightAware ADS-B
Wed 09:42:06 PM 40.5680 -73.8280 201° Southwest 192 221 2,100 667 Level FlightAware ADS-B
Wed 09:42:12 PM 40.5620 -73.8290 187° South 193 222 2,200 1,200 Climbing FlightAware ADS-B
Wed 09:42:36 PM 40.5450 -73.8150 148° Southeast 198 228 2,700 1,125 Climbing FlightAware ADS-B
Wed 09:42:44 PM 40.5420 -73.8060 114° Southeast 203 234 2,800 857 Climbing FlightAware ADS-B
Wed 09:42:50 PM 40.5420 -73.7980 90° East 206 237 2,900 1,154 Climbing FlightAware ADS-B
Wed 09:43:10 PM 40.5450 -73.7740 81° East 209 241 3,300 878 Climbing FlightAware ADS-B
Wed 09:43:31 PM 40.5500 -73.7450 77° East 228 262 3,500 698 Climbing FlightAware ADS-B
Wed 09:43:53 PM 40.5560 -73.7170 74° East 238 274 3,800 800 Climbing FlightAware ADS-B
Wed 09:44:16 PM 40.5620 -73.6810 78° East 258 297 4,100 732 Climbing FlightAware ADS-B
Wed 09:44:34 PM 40.5620 -73.6520 90° East 275 316 4,300 1,050 Climbing FlightAware ADS-B
Wed 09:44:56 PM 40.5610 -73.6120 92° East 291 335 4,800 1,500 Climbing FlightAware ADS-B
Wed 09:45:18 PM 40.5610 -73.5740 90° East 303 349 5,400 1,759 Climbing FlightAware ADS-B
Wed 09:45:54 PM 40.5610 -73.5070 90° East 312 359 6,500 1,929 Climbing FlightAware ADS-B
Wed 09:46:14 PM 40.5610 -73.4690 90° East 317 365 7,200 2,308 Climbing FlightAware ADS-B
Wed 09:46:20 PM 40.5610 -73.4570 90° East 317 365 7,500 2,118 Climbing FlightAware ADS-B
Wed 09:46:48 PM 40.5610 -73.4030 90° East 323 372 8,400 2,000 Climbing FlightAware ADS-B
Wed 09:47:05 PM 40.5607 -73.3668 91° East 328 377 9,000 1,742 Climbing FlightAware ADS-B (KSNC)
Wed 09:47:50 PM 40.5610 -73.2790 90° East 340 391 10,200 1,407 Climbing FlightAware ADS-B
Wed 09:48:26 PM 40.5602 -73.1985 91° East 366 421 10,900 1,077 Climbing FlightAware ADS-B (KSNC)
Wed 09:49:08 PM 40.5604 -73.1008 90° East 402 463 11,600 1,360 Climbing FlightAware ADS-B (KSNC)
Wed 09:49:41 PM 40.5625 -73.0292 88° East 411 473 12,600 1,545 Climbing FlightAware ADS-B (KSNC)
Wed 09:50:14 PM 40.5773 -72.9396 78° East 433 498 13,300 1,800 Climbing FlightAware ADS-B (KSNC)
Wed 09:50:51 PM 40.6015 -72.8493 71° East 438 504 14,700 1,970 Climbing FlightAware ADS-B (KSNC)
Wed 09:51:21 PM 40.6223 -72.7674 71° East 450 518 15,500 1,881 Climbing FlightAware ADS-B (KSNC)
Wed 09:51:58 PM 40.6390 -72.6686 77° East 455 524 16,800 1,941 Climbing FlightAware ADS-B (KSNC)
Wed 09:52:29 PM 40.6453 -72.5825 85° East 461 531 17,700 1,791 Climbing FlightAware ADS-B (KSNC)
Wed 09:53:05 PM 40.6516 -72.4870 85° East 469 540 18,800 1,829 Climbing FlightAware ADS-B (KSNC)
Wed 09:53:51 PM 40.6741 -72.3522 78° East 475 547 20,200 1,481 Climbing FlightAware ADS-B (KSNC)
Wed 09:54:22 PM 40.6950 -72.2750 70° East 485 558 20,700 1,263 Climbing FlightAware ADS-B
Wed 09:54:29 PM 40.7023 -72.2470 71° East 485 558 21,000 1,967 Climbing FlightAware ADS-B (KSNC)
Wed 09:55:23 PM 40.7256 -72.1583 71° East 486 559 22,700 1,545 Climbing FlightAware ADS-B (KSNC)
Wed 09:56:10 PM 40.7760 -71.9690 71° East 492 566 23,600 1,125 Climbing FlightAware ADS-B
Wed 09:56:43 PM 40.8020 -71.8750 70° East 498 573 24,200 1,217 Climbing FlightAware ADS-B
Wed 09:57:19 PM 40.8300 -71.7680 71° East 505 581 25,000 1,174 Climbing FlightAware ADS-B
Wed 09:57:29 PM 40.7889 -71.9234 251° West 496 571 25,100 1,200 Climbing FlightAware ADS-B (KSNC)
Wed 09:58:29 PM 40.8870 -71.5650 70° East 515 593 26,400 1,113 Climbing FlightAware ADS-B
Wed 09:59:06 PM 40.9270 -71.4590 63° Northeast 524 603 26,900 1,217 Climbing FlightAware ADS-B
Wed 09:59:38 PM 40.9630 -71.3650 63° Northeast 523 602 27,800 1,254 Climbing FlightAware ADS-B
Wed 10:00:13 PM 41.0020 -71.2690 62° Northeast 527 606 28,300 822 Climbing FlightAware ADS-B
Wed 10:00:51 PM 41.0480 -71.1580 61° Northeast 536 617 28,800 870 Climbing FlightAware ADS-B
Wed 10:01:22 PM 41.0840 -71.0710 61° Northeast 538 619 29,300 882 Climbing FlightAware ADS-B
Wed 10:01:59 PM 41.1290 -70.9600 62° Northeast 544 626 29,800 686 Climbing FlightAware ADS-B
Wed 10:02:32 PM 41.1680 -70.8650 61° Northeast 551 634 30,100 870 Climbing FlightAware ADS-B
Wed 10:03:08 PM 41.2100 -70.7610 62° Northeast 551 634 30,800 1,183 Climbing FlightAware ADS-B
Wed 10:03:43 PM 41.2540 -70.6500 62° Northeast 549 632 31,500 1,029 Climbing FlightAware ADS-B
Wed 10:04:18 PM 41.2960 -70.5460 62° Northeast 550 633 32,000 833 Climbing FlightAware ADS-B
Wed 10:04:55 PM 41.3400 -70.4390 61° Northeast 551 634 32,500 870 Climbing FlightAware ADS-B
Wed 10:05:27 PM 41.3790 -70.3400 62° Northeast 551 634 33,000 448 Climbing FlightAware ADS-B
Wed 10:06:02 PM 41.4200 -70.2380 62° Northeast 551 634 33,000  Level FlightAware ADS-B
Wed 10:06:42 PM 41.4620 -70.1370 61° Northeast 551 634 33,000  Level FlightAware ADS-B
Wed 10:07:06 PM 41.4870 -70.0760 61° Northeast 551 634 33,000  Level FlightAware ADS-B
Wed 10:07:54 PM 41.5380 -69.9550 61° Northeast 551 634 33,000  Level FlightAware ADS-B
Wed 10:08:21 PM 41.5790 -69.8340 66° East 756 870 33,000  Level FlightAware ADS-B
Wed 10:09:00 PM 41.6280 -69.7090 62° Northeast 540 621 33,000  Level FlightAware ADS-B
Wed 10:09:33 PM 41.6640 -69.6150 63° Northeast 538 619 33,000  Level FlightAware ADS-B
Wed 10:10:07 PM 41.7050 -69.5080 63° Northeast 538 619 33,000  Level FlightAware ADS-B
Wed 10:10:44 PM 41.7480 -69.3990 62° Northeast 539 620 33,000  Level FlightAware ADS-B
Wed 10:11:33 PM 41.8030 -69.2560 63° Northeast 540 621 33,000  Level FlightAware ADS-B
Wed 10:11:34 PM 41.8090 -69.2384 66° East 541 623 33,000  Level FlightAware ADS-B
Wed 10:12:25 PM 41.8667 -69.0895 62° Northeast 540 621 33,000  Level FlightAware ADS-B
Wed 10:13:12 PM 41.9050 -68.9920 62° Northeast 540 621 33,000  Level FlightAware ADS-B
Wed 10:13:14 PM 41.9223 -68.9435 64° Northeast 539 620 33,000  Level FlightAware ADS-B
Wed 10:13:44 PM 41.9520 -68.8631 64° Northeast 539 620 33,000  Level FlightAware ADS-B
Wed 10:14:24 PM 41.9595 -68.8451 61° Northeast 539 620 33,000  Level FlightAware ADS-B
Wed 10:14:55 PM 42.0295 -68.6570 63° Northeast 540 621 33,000  Level FlightAware ADS-B
Wed 10:15:30 PM 42.0751 -68.5369 63° Northeast 541 623 33,000  Level FlightAware ADS-B
Wed 10:16:00 PM 42.1085 -68.4469 63° Northeast 540 621 33,000  Level FlightAware ADS-B
Wed 10:16:41 PM 42.1524 -68.3297 63° Northeast 540 621 33,000  Level FlightAware ADS-B
Wed 10:17:11 PM 42.1886 -68.2305 64° Northeast 539 620 33,000  Level FlightAware ADS-B
Wed 10:17:41 PM 42.2217 -68.1404 64° Northeast 539 620 33,000  Level FlightAware ADS-B
Wed 10:18:13 PM 42.2460 -68.0742 64° Northeast 540 621 33,000  Level FlightAware ADS-B
Wed 10:19:03 PM 42.3090 -67.9020 64° Northeast 540 621 33,000  Level FlightAware ADS-B
Wed 10:19:34 PM 42.3441 -67.8081 63° Northeast 542 624 33,000  Level FlightAware ADS-B
Wed 10:20:09 PM 42.3737 -67.7260 64° Northeast 543 625 33,000  Level FlightAware ADS-B
Wed 10:20:39 PM 42.4179 -67.6044 64° Northeast 542 624 33,000  Level FlightAware ADS-B
Wed 10:21:13 PM 42.4548 -67.5009 64° Northeast 540 621 33,000  Level FlightAware ADS-B
Wed 10:21:50 PM 42.4770 -67.4380 64° Northeast 539 620 33,000  Level FlightAware ADS-B
Wed 10:21:54 PM 42.5001 -67.3765 63° Northeast 540 621 33,000  Level FlightAware ADS-B
Wed 10:22:28 PM 42.5144 -67.3339 66° East 539 620 33,000  Level FlightAware ADS-B
Wed 10:22:58 PM 42.5570 -67.2130 64° Northeast 536 617 33,000  Level FlightAware ADS-B
Wed 10:23:13 PM 42.5857 -67.1361 63° Northeast 540 621 33,000  Level FlightAware ADS-B
Wed 10:23:47 PM 42.6226 -67.0324 64° Northeast 540 621 33,000  Level FlightAware ADS-B
Wed 10:24:26 PM 42.6648 -66.9136 64° Northeast 540 621 33,000  Level FlightAware ADS-B
Wed 10:25:15 PM 42.7171 -66.7712 63° Northeast 538 619 33,000  Level FlightAware ADS-B
Wed 10:25:46 PM 42.7540 -66.6680 64° Northeast 538 619 33,000  Level FlightAware ADS-B
Wed 10:26:17 PM 42.7811 -66.5955 63° Northeast 538 619 33,000  Level FlightAware ADS-B
Wed 10:26:47 PM 42.8209 -66.4829 64° Northeast 538 619 33,000  Level FlightAware ADS-B
Wed 10:27:22 PM 42.8582 -66.3797 64° Northeast 537 618 33,000  Level FlightAware ADS-B
Wed 10:27:52 PM 42.8914 -66.2855 64° Northeast 537 618 33,000  Level FlightAware ADS-B
Wed 10:28:27 PM 42.9284 -66.1819 64° Northeast 537 618 33,000  Level FlightAware ADS-B
Wed 10:28:57 PM 42.9617 -66.0873 64° Northeast 538 619 33,000  Level FlightAware ADS-B
Wed 10:29:28 PM 42.9947 -65.9956 64° Northeast 538 619 33,000  Level FlightAware ADS-B
Wed 10:29:58 PM 43.0278 -65.9007 65° Northeast 539 620 33,000  Level FlightAware ADS-B
Wed 10:30:29 PM 43.0607 -65.8059 65° Northeast 538 619 33,000  Level FlightAware ADS-B
Wed 10:31:09 PM 43.1028 -65.6864 64° Northeast 538 619 33,000  Level FlightAware ADS-B
Wed 10:31:40 PM 43.1357 -65.5909 65° Northeast 539 620 33,000  Level FlightAware ADS-B
Wed 10:32:31 PM 43.1879 -65.4401 65° Northeast 539 620 33,000  Level FlightAware ADS-B
Wed 10:33:01 PM 43.2218 -65.3416 65° Northeast 537 618 33,000  Level FlightAware ADS-B
Wed 10:33:31 PM 43.2548 -65.2464 64° Northeast 535 616 33,000  Level FlightAware ADS-B
Wed 10:34:02 PM 43.2868 -65.1545 64° Northeast 534 615 33,000  Level FlightAware ADS-B
Wed 10:34:36 PM 43.3226 -65.0506 65° Northeast 533 613 33,000  Level FlightAware ADS-B
Wed 10:35:07 PM 43.3549 -64.9553 65° Northeast 534 615 33,000  Level FlightAware ADS-B
Wed 10:35:40 PM 43.3882 -64.8541 66° East 533 613 33,000  Level FlightAware ADS-B
Wed 10:36:12 PM 43.4215 -64.7558 65° Northeast 533 613 33,000  Level FlightAware ADS-B
Wed 10:36:42 PM 43.4525 -64.6636 65° Northeast 533 613 33,000  Level FlightAware ADS-B
Wed 10:37:19 PM 43.4908 -64.5497 65° Northeast 534 615 33,000  Level FlightAware ADS-B
Wed 10:37:53 PM 43.5239 -64.4508 65° Northeast 535 616 33,000  Level FlightAware ADS-B
Wed 10:38:35 PM 43.5540 -64.3650 64° Northeast 533 613 33,000  Level FlightAware ADS-B
Wed 10:38:42 PM 43.5771 -64.2924 66° East 537 618 33,000  Level FlightAware ADS-B
Wed 10:39:23 PM 43.6128 -64.1837 66° East 538 619 33,000  Level FlightAware ADS-B
Wed 10:40:05 PM 43.6616 -64.0339 66° East 537 618 33,000  Level FlightAware ADS-B
Wed 10:40:56 PM 43.7098 -63.8874 65° Northeast 536 617 33,000  Level FlightAware ADS-B
Wed 10:41:36 PM 43.7140 -63.8900 336° Northwest 533 613 33,000  Level FlightAware ADS-B
Wed 10:41:51 PM 43.7698 -63.7026 68° East 538 619 33,000  Level FlightAware ADS-B
Wed 10:42:21 PM 43.7985 -63.6148 66° East 539 620 33,000  Level FlightAware ADS-B
Wed 10:42:54 PM 43.8341 -63.5044 66° East 540 621 33,000  Level FlightAware ADS-B
Wed 10:43:25 PM 43.8606 -63.4222 66° East 540 621 33,000  Level FlightAware ADS-B
Wed 10:44:05 PM 43.9020 -63.2923 66° East 542 624 33,000  Level FlightAware ADS-B
Wed 10:45:03 PM 43.9645 -63.0952 66° East 544 626 33,000  Level FlightAware ADS-B
Wed 10:45:37 PM 43.9962 -62.9930 67° East 544 626 33,000  Level FlightAware ADS-B
Wed 10:46:25 PM 44.0468 -62.8334 66° East 544 626 33,000  Level FlightAware ADS-B
Wed 10:46:58 PM 44.0799 -62.7274 66° East 545 627 33,000  Level FlightAware ADS-B
Wed 10:47:51 PM 44.1329 -62.5579 66° East 542 624 33,000  Level FlightAware ADS-B
Wed 10:48:39 PM 44.1806 -62.4043 67° East 542 624 33,000  Level FlightAware ADS-B
Wed 10:49:28 PM 44.2000 -62.2333 67° East 540 621 33,000  Level Gander Center
Wed 10:50:28 PM 44.2667 -62.0500 63° Northeast 540 621 33,000  Level Gander Center
Wed 10:51:28 PM 44.3333 -61.8667 63° Northeast 540 621 33,000  Level Gander Center
Wed 10:52:28 PM 44.3833 -61.6833 69° East 530 610 33,000  Level Gander Center
Wed 10:57:46 PM 44.6960 -60.6700 69° East 538 619 33,000  Level FlightAware ADS-B
Wed 10:58:34 PM 44.7410 -60.5170 67° East 540 621 33,000  Level FlightAware ADS-B
Wed 10:59:10 PM 44.7740 -60.4000 68° East 540 621 33,000  Level FlightAware ADS-B
Wed 10:59:46 PM 44.8070 -60.2830 68° East 541 623 33,000  Level FlightAware ADS-B
Wed 11:00:16 PM 44.8360 -60.1810 68° East 541 623 33,000  Level FlightAware ADS-B
Wed 11:00:54 PM 44.8700 -60.0600 68° East 541 623 33,000  Level FlightAware ADS-B
Wed 11:01:30 PM 44.9040 -59.9380 68° East 541 623 33,000  Level FlightAware ADS-B
Wed 11:02:02 PM 44.9320 -59.8370 69° East 541 623 33,000  Level FlightAware ADS-B
Wed 11:02:38 PM 44.9660 -59.7150 68° East 540 621 33,000  Level FlightAware ADS-B
Wed 11:03:14 PM 44.9980 -59.5970 69° East 539 620 33,000  Level FlightAware ADS-B
Wed 11:03:48 PM 45.0290 -59.4860 68° East 538 619 33,000  Level FlightAware ADS-B
Wed 11:04:26 PM 45.0630 -59.3610 69° East 537 618 33,000  Level FlightAware ADS-B
Wed 11:05:02 PM 45.0950 -59.2440 69° East 536 617 33,000  Level FlightAware ADS-B
Wed 11:05:34 PM 45.1230 -59.1420 69° East 535 616 33,000  Level FlightAware ADS-B
Wed 11:06:10 PM 45.1540 -59.0250 69° East 534 615 33,000  Level FlightAware ADS-B
Wed 11:06:44 PM 45.1850 -58.9100 69° East 533 613 33,000  Level FlightAware ADS-B
Wed 11:07:18 PM 45.2150 -58.7990 69° East 533 613 33,000  Level FlightAware ADS-B
Wed 11:07:56 PM 45.2480 -58.6750 69° East 533 613 33,000  Level FlightAware ADS-B
Wed 11:08:30 PM 45.2760 -58.5670 70° East 534 615 33,000  Level FlightAware ADS-B
Wed 11:09:06 PM 45.3070 -58.4490 69° East 536 617 33,000  Level FlightAware ADS-B
Wed 11:09:38 PM 45.3350 -58.3430 69° East 537 618 33,000  Level FlightAware ADS-B
Wed 11:10:14 PM 45.3670 -58.2200 70° East 537 618 33,000  Level FlightAware ADS-B
Wed 11:10:50 PM 45.3970 -58.1040 70° East 536 617 33,000  Level FlightAware ADS-B
Wed 11:11:19 PM 45.4170 -58.0280 69° East 536 617 33,000  Level FlightAware ADS-B
Wed 11:12:00 PM 45.4570 -57.8730 70° East 535 616 33,000  Level FlightAware ADS-B
Wed 11:12:31 PM 45.4820 -57.7730 70° East 534 615 33,000  Level FlightAware ADS-B
Wed 11:13:11 PM 45.5110 -57.6610 70° East 534 615 33,000  Level FlightAware ADS-B
Wed 11:13:48 PM 45.5370 -57.5570 70° East 534 615 33,000  Level FlightAware ADS-B
Wed 11:14:25 PM 45.5640 -57.4520 70° East 534 615 33,000  Level FlightAware ADS-B
Wed 11:15:01 PM 45.6080 -57.2750 70° East 529 609 33,000  Level FlightAware ADS-B
Wed 11:15:38 PM 45.6360 -57.1630 70° East 529 609 33,000  Level FlightAware ADS-B
Wed 11:16:12 PM 45.6660 -57.0410 71° East 530 610 33,000  Level FlightAware ADS-B
Wed 11:16:47 PM 45.6920 -56.9290 72° East 530 610 33,000  Level FlightAware ADS-B
Wed 11:17:26 PM 45.7220 -56.7950 72° East 531 611 33,000  Level FlightAware ADS-B
Wed 11:18:18 PM 45.7590 -56.6210 73° East 531 611 33,000  Level FlightAware ADS-B
Wed 11:18:55 PM 45.7860 -56.5000 72° East 531 611 33,000  Level FlightAware ADS-B
Wed 11:19:25 PM 45.8090 -56.3930 73° East 531 611 33,000  Level FlightAware ADS-B
Wed 11:20:02 PM 45.8360 -56.2720 72° East 531 611 33,000  Level FlightAware ADS-B
Wed 11:20:39 PM 45.8630 -56.1480 73° East 530 610 33,000  Level FlightAware ADS-B
Wed 11:21:14 PM 45.8870 -56.0370 73° East 530 610 33,000  Level FlightAware ADS-B
Wed 11:21:53 PM 45.9170 -55.8960 73° East 531 611 33,000  Level FlightAware ADS-B
Wed 11:22:30 PM 45.9430 -55.7710 73° East 532 612 33,000  Level FlightAware ADS-B
Wed 11:23:07 PM 45.9700 -55.6470 73° East 531 611 33,000  Level FlightAware ADS-B
Wed 11:23:39 PM 45.9930 -55.5420 72° East 532 612 33,000  Level FlightAware ADS-B
Wed 11:24:16 PM 46.0190 -55.4170 73° East 530 610 33,000  Level FlightAware ADS-B
Wed 11:24:49 PM 46.0410 -55.3060 74° East 529 609 33,000  Level FlightAware ADS-B
Wed 11:25:23 PM 46.0660 -55.1880 73° East 528 608 33,000  Level FlightAware ADS-B
Wed 11:26:01 PM 46.0910 -55.0630 74° East 529 609 33,000  Level FlightAware ADS-B
Wed 11:26:37 PM 46.1170 -54.9380 73° East 530 610 33,000  Level FlightAware ADS-B
Wed 11:27:09 PM 46.1390 -54.8290 74° East 531 611 33,000  Level FlightAware ADS-B
Wed 11:27:44 PM 46.1630 -54.7100 74° East 531 611 33,000  Level FlightAware ADS-B
Wed 11:28:19 PM 46.1860 -54.5940 74° East 532 612 33,000  Level FlightAware ADS-B
Wed 11:28:56 PM 46.2110 -54.4680 74° East 532 612 33,000  Level FlightAware ADS-B
Wed 11:29:27 PM 46.2320 -54.3630 74° East 531 611 33,000  Level FlightAware ADS-B
Wed 11:30:04 PM 46.2570 -54.2360 74° East 531 611 33,000  Level FlightAware ADS-B
Wed 11:30:40 PM 46.2810 -54.1140 74° East 530 610 33,000  Level FlightAware ADS-B
Wed 11:31:14 PM 46.3040 -53.9950 74° East 530 610 33,000  Level FlightAware ADS-B
Wed 11:31:51 PM 46.3290 -53.8690 74° East 529 609 33,000  Level FlightAware ADS-B
Wed 11:32:22 PM 46.3490 -53.7630 75° East 530 610 33,000  Level FlightAware ADS-B
Wed 11:33:01 PM 46.3740 -53.6330 74° East 529 609 33,000  Level FlightAware ADS-B
Wed 11:33:36 PM 46.3970 -53.5140 74° East 529 609 33,000  Level FlightAware ADS-B
Wed 11:34:08 PM 46.4180 -53.4010 75° East 529 609 33,000  Level FlightAware ADS-B
Wed 11:34:45 PM 46.4410 -53.2780 75° East 529 609 33,000  Level FlightAware ADS-B
Wed 11:35:20 PM 46.4630 -53.1580 75° East 530 610 33,000  Level FlightAware ADS-B
Wed 11:35:52 PM 46.4840 -53.0490 74° East 531 611 33,000  Level FlightAware ADS-B
Wed 11:36:30 PM 46.5080 -52.9140 75° East 532 612 33,000  Level FlightAware ADS-B
Wed 11:37:03 PM 46.5280 -52.8040 75° East 531 611 33,000  Level FlightAware ADS-B
Wed 11:37:40 PM 46.5520 -52.6730 75° East 531 611 33,000  Level FlightAware ADS-B
Wed 11:38:15 PM 46.5740 -52.5520 75° East 531 611 33,000  Level FlightAware ADS-B
Wed 11:38:52 PM 46.5960 -52.4280 75° East 531 611 33,000  Level FlightAware ADS-B
Wed 11:39:24 PM 46.6160 -52.3170 75° East 531 611 33,000  Level FlightAware ADS-B
Wed 11:39:57 PM 46.6360 -52.2000 76° East 531 611 33,000  Level FlightAware ADS-B
Wed 11:40:36 PM 46.6600 -52.0680 75° East 532 612 33,000  Level FlightAware ADS-B
Wed 11:41:11 PM 46.6810 -51.9470 76° East 531 611 33,000  Level FlightAware ADS-B
Wed 11:41:43 PM 46.7010 -51.8330 76° East 530 610 33,000  Level FlightAware ADS-B
Wed 11:42:20 PM 46.7220 -51.7050 76° East 529 609 33,000  Level FlightAware ADS-B
Wed 11:42:55 PM 46.7430 -51.5870 75° East 529 609 33,000  Level FlightAware ADS-B
Wed 11:43:29 PM 46.7630 -51.4700 76° East 529 609 33,000  Level FlightAware ADS-B
Wed 11:44:06 PM 46.7830 -51.3450 77° East 529 609 33,000  Level FlightAware ADS-B
Wed 11:44:41 PM 46.8040 -51.2200 76° East 528 608 33,000  Level FlightAware ADS-B
Wed 11:45:21 PM 46.8250 -51.0960 76° East 528 608 33,000  Level FlightAware ADS-B
Wed 11:45:56 PM 46.8480 -50.9570 76° East 529 609 33,000  Level FlightAware ADS-B
Wed 11:46:27 PM 46.8640 -50.8560 77° East 529 609 33,000  Level FlightAware ADS-B
Wed 11:47:10 PM 46.8870 -50.7200 76° East 528 608 33,000  Level FlightAware ADS-B
Wed 11:47:47 PM 46.9060 -50.6110 76° East 528 608 33,000  Level FlightAware ADS-B
Wed 11:48:21 PM 46.9230 -50.5110 76° East 528 608 33,000  Level FlightAware ADS-B
Wed 11:48:57 PM 46.9410 -50.4050 76° East 528 608 33,000  Level FlightAware ADS-B
Wed 11:49:31 PM 46.9670 -50.2130 79° East 530 610 33,000  Level FlightAware ADS-B
Wed 11:50:09 PM 46.9880 -50.0770 77° East 530 610 33,000  Level FlightAware ADS-B
Wed 11:50:44 PM 47.0070 -49.9540 77° East 530 610 33,000  Level FlightAware ADS-B
Wed 11:51:17 PM 47.0240 -49.8390 78° East 530 610 33,000  Level FlightAware ADS-B
Wed 11:51:53 PM 47.0420 -49.7120 78° East 530 610 33,000  Level FlightAware ADS-B
Wed 11:52:31 PM 47.0610 -49.5790 78° East 529 609 33,000  Level FlightAware ADS-B
Wed 11:53:01 PM 47.0760 -49.4730 78° East 528 608 33,000  Level FlightAware ADS-B
Wed 11:53:38 PM 47.0940 -49.3470 78° East 528 608 33,000  Level FlightAware ADS-B
Wed 11:54:14 PM 47.1120 -49.2170 78° East 527 606 33,000  Level FlightAware ADS-B
Wed 11:54:51 PM 47.1300 -49.0880 78° East 527 606 33,000  Level FlightAware ADS-B
Wed 11:55:26 PM 47.1460 -48.9650 79° East 528 608 33,000  Level FlightAware ADS-B
Wed 11:55:58 PM 47.1620 -48.8530 78° East 527 606 33,000  Level FlightAware ADS-B
Wed 11:56:37 PM 47.1780 -48.7400 78° East 527 606 33,000  Level FlightAware ADS-B
Wed 11:57:13 PM 47.1930 -48.6330 78° East 527 606 33,000  Level FlightAware ADS-B
Wed 11:57:53 PM 47.2130 -48.4800 79° East 528 608 33,000  Level FlightAware ADS-B
Wed 11:58:27 PM 47.2280 -48.3780 78° East 528 608 33,000  Level FlightAware ADS-B
Wed 11:59:03 PM 47.2430 -48.2700 78° East 528 608 33,000  Level FlightAware ADS-B
Wed 11:59:41 PM 47.2600 -48.1570 77° East 528 608 33,000  Level FlightAware ADS-B
Thu 12:00:17 AM 47.2750 -48.0490 78° East 528 608 33,000  Level FlightAware ADS-B
Thu 12:00:53 AM 47.2910 -47.9410 78° East 528 608 33,000  Level FlightAware ADS-B
Thu 12:01:29 AM 47.3060 -47.8330 78° East 528 608 33,000  Level FlightAware ADS-B
Thu 12:02:05 AM 47.3220 -47.7250 78° East 528 608 33,000  Level FlightAware ADS-B
Thu 12:02:41 AM 47.3370 -47.6170 78° East 528 608 33,000  Level FlightAware ADS-B
Thu 12:03:17 AM 47.3530 -47.5100 78° East 528 608 33,000  Level FlightAware ADS-B
Thu 12:03:53 AM 47.3680 -47.4020 78° East 528 608 33,000  Level FlightAware ADS-B
Thu 12:04:29 AM 47.3840 -47.2940 78° East 528 608 33,000  Level FlightAware ADS-B
Thu 12:05:06 AM 47.4000 -47.1830 78° East 528 608 33,000  Level FlightAware ADS-B
Thu 12:05:42 AM 47.4150 -47.0750 78° East 528 608 33,000  Level FlightAware ADS-B
Thu 12:06:20 AM 47.4320 -46.9610 78° East 528 608 33,000  Level FlightAware ADS-B
Thu 12:07:06 AM 47.4520 -46.8220 78° East 528 608 33,000  Level FlightAware ADS-B
Thu 12:13:00 AM 47.5781 -45.5707 81° East  Level FlightAware Approximate
Thu 12:14:00 AM 47.5981 -45.3580 82° East  Level FlightAware Approximate
Thu 12:15:00 AM 47.6177 -45.1451 82° East  Level FlightAware Approximate
Thu 12:16:00 AM 47.6369 -44.9322 82° East  Level FlightAware Approximate
Thu 12:17:00 AM 47.6558 -44.7190 82° East  Level FlightAware Approximate
Thu 12:18:00 AM 47.6742 -44.5057 83° East  Level FlightAware Approximate
Thu 12:19:00 AM 47.6923 -44.2923 83° East  Level FlightAware Approximate
Thu 12:20:00 AM 47.7099 -44.0787 83° East  Level FlightAware Approximate
Thu 12:21:00 AM 47.7272 -43.8649 83° East  Level FlightAware Approximate
Thu 12:22:00 AM 47.7440 -43.6510 83° East  Level FlightAware Approximate
Thu 12:23:00 AM 47.7605 -43.4370 83° East  Level FlightAware Approximate
Thu 12:24:00 AM 47.7765 -43.2229 84° East  Level FlightAware Approximate
Thu 12:25:00 AM 47.7922 -43.0086 84° East  Level FlightAware Approximate
Thu 12:26:00 AM 47.8074 -42.7942 84° East  Level FlightAware Approximate
Thu 12:27:00 AM 47.8223 -42.5797 84° East  Level FlightAware Approximate
Thu 12:28:00 AM 47.8375 -42.3647 83° East  Level FlightAware Approximate
Thu 12:29:00 AM 47.8542 -42.1504 83° East  Level FlightAware Approximate
Thu 12:30:00 AM 47.8706 -41.9359 83° East  Level FlightAware Approximate
Thu 12:31:00 AM 47.8866 -41.7213 84° East  Level FlightAware Approximate
Thu 12:32:00 AM 47.9022 -41.5065 84° East  Level FlightAware Approximate
Thu 12:33:00 AM 47.9174 -41.2916 84° East  Level FlightAware Approximate
Thu 12:34:00 AM 47.9321 -41.0766 84° East  Level FlightAware Approximate
Thu 12:35:00 AM 47.9465 -40.8615 84° East  Level FlightAware Approximate
Thu 12:36:00 AM 47.9605 -40.6463 84° East  Level FlightAware Approximate
Thu 12:37:00 AM 47.9741 -40.4309 85° East  Level FlightAware Approximate
Thu 12:38:00 AM 47.9872 -40.2154 85° East  Level FlightAware Approximate
Thu 12:39:00 AM 48.0000 -39.9999 78° East  Level FlightAware Approximate
Thu 12:40:00 AM 48.0297 -39.7880 78° East  Level FlightAware Approximate
Thu 12:41:00 AM 48.0589 -39.5758 78° East  Level FlightAware Approximate
Thu 12:42:00 AM 48.0878 -39.3634 78° East  Level FlightAware Approximate
Thu 12:43:00 AM 48.1163 -39.1508 79° East  Level FlightAware Approximate
Thu 12:44:00 AM 48.1444 -38.9379 79° East  Level FlightAware Approximate
Thu 12:45:00 AM 48.1722 -38.7248 79° East  Level FlightAware Approximate
Thu 12:46:00 AM 48.2001 -38.5117 79° East  Level FlightAware Approximate
Thu 12:47:00 AM 48.2276 -38.2983 79° East  Level FlightAware Approximate
Thu 12:48:00 AM 48.2547 -38.0846 79° East  Level FlightAware Approximate
Thu 12:49:00 AM 48.2815 -37.8708 79° East  Level FlightAware Approximate
Thu 12:50:00 AM 48.3078 -37.6567 79° East  Level FlightAware Approximate
Thu 12:51:00 AM 48.3337 -37.4425 80° East  Level FlightAware Approximate
Thu 12:52:00 AM 48.3593 -37.2280 80° East  Level FlightAware Approximate
Thu 12:53:00 AM 48.3844 -37.0133 80° East  Level FlightAware Approximate
Thu 12:54:00 AM 48.4091 -36.7983 80° East  Level FlightAware Approximate
Thu 12:55:00 AM 48.4334 -36.5832 80° East  Level FlightAware Approximate
Thu 12:56:00 AM 48.4574 -36.3679 80° East  Level FlightAware Approximate
Thu 12:57:00 AM 48.4813 -36.1524 80° East  Level FlightAware Approximate
Thu 12:58:00 AM 48.5051 -35.9369 80° East  Level FlightAware Approximate
Thu 12:59:00 AM 48.5284 -35.7211 81° East  Level FlightAware Approximate
Thu 01:00:00 AM 48.5513 -35.5051 81° East  Level FlightAware Approximate
Thu 01:01:00 AM 48.5739 -35.2889 81° East  Level FlightAware Approximate
Thu 01:02:00 AM 48.5960 -35.0726 81° East  Level FlightAware Approximate
Thu 01:03:00 AM 48.6179 -34.8560 81° East  Level FlightAware Approximate
Thu 01:04:00 AM 48.6395 -34.6393 81° East  Level FlightAware Approximate
Thu 01:05:00 AM 48.6606 -34.4225 82° East  Level FlightAware Approximate
Thu 01:06:00 AM 48.6814 -34.2054 82° East  Level FlightAware Approximate
Thu 01:07:00 AM 48.7017 -33.9882 82° East  Level FlightAware Approximate
Thu 01:08:00 AM 48.7216 -33.7708 82° East  Level FlightAware Approximate
Thu 01:09:00 AM 48.7411 -33.5532 82° East  Level FlightAware Approximate
Thu 01:10:00 AM 48.7602 -33.3355 82° East  Level FlightAware Approximate
Thu 01:11:00 AM 48.7789 -33.1176 83° East  Level FlightAware Approximate
Thu 01:12:00 AM 48.7971 -32.8995 83° East  Level FlightAware Approximate
Thu 01:13:00 AM 48.8150 -32.6813 83° East  Level FlightAware Approximate
Thu 01:14:00 AM 48.8324 -32.4629 83° East  Level FlightAware Approximate
Thu 01:15:00 AM 48.8495 -32.2444 83° East  Level FlightAware Approximate
Thu 01:16:00 AM 48.8661 -32.0257 83° East  Level FlightAware Approximate
Thu 01:17:00 AM 48.8823 -31.8069 83° East  Level FlightAware Approximate
Thu 01:18:00 AM 48.8981 -31.5879 84° East  Level FlightAware Approximate
Thu 01:19:00 AM 48.9135 -31.3688 84° East  Level FlightAware Approximate
Thu 01:20:00 AM 48.9285 -31.1496 84° East  Level FlightAware Approximate
Thu 01:21:00 AM 48.9430 -30.9302 84° East  Level FlightAware Approximate
Thu 01:22:00 AM 48.9571 -30.7108 84° East  Level FlightAware Approximate
Thu 01:23:00 AM 48.9709 -30.4911 84° East  Level FlightAware Approximate
Thu 01:24:00 AM 48.9841 -30.2714 85° East  Level FlightAware Approximate
Thu 01:25:00 AM 48.9970 -30.0516 85° East  Level FlightAware Approximate
Thu 01:26:00 AM 49.0239 -29.8350 77° East  Level FlightAware Approximate
Thu 01:27:00 AM 49.0549 -29.6191 78° East  Level FlightAware Approximate
Thu 01:28:00 AM 49.0854 -29.4030 78° East  Level FlightAware Approximate
Thu 01:29:00 AM 49.1155 -29.1867 78° East  Level FlightAware Approximate
Thu 01:30:00 AM 49.1452 -28.9700 78° East  Level FlightAware Approximate
Thu 01:30:00 AM 49.0000 -30.0000 77° East 525 604 33,000  Level ETMS Enhanced Traffic Management System
Thu 01:31:00 AM 49.1746 -28.7532 78° East  Level FlightAware Approximate
Thu 01:32:00 AM 49.2034 -28.5364 78° East  Level FlightAware Approximate
Thu 01:33:00 AM 49.2319 -28.3194 79° East  Level FlightAware Approximate
Thu 01:34:00 AM 49.2599 -28.1021 79° East  Level FlightAware Approximate
Thu 01:35:00 AM 49.2876 -27.8846 79° East  Level FlightAware Approximate
Thu 01:36:00 AM 49.2685 -28.0353 79° East 525 604 33,000  Level FlightAware Transoceanic
Thu 01:37:00 AM 49.2962 -27.8157 79° East 525 604 33,000  Level FlightAware Transoceanic
Thu 01:38:00 AM 49.3236 -27.5959 79° East 525 604 33,000  Level FlightAware Transoceanic
Thu 01:39:00 AM 49.3505 -27.3758 79° East 525 604 33,000  Level FlightAware Transoceanic
Thu 01:40:00 AM 49.3770 -27.1555 80° East 525 604 33,000  Level FlightAware Transoceanic
Thu 01:41:00 AM 49.4031 -26.9349 80° East 525 604 33,000  Level FlightAware Transoceanic
Thu 01:42:00 AM 49.4288 -26.7142 80° East 525 604 33,000  Level FlightAware Transoceanic
Thu 01:43:00 AM 49.4540 -26.4932 80° East 525 604 33,000  Level FlightAware Transoceanic
Thu 01:44:00 AM 49.4788 -26.2719 80° East 525 604 33,000  Level FlightAware Transoceanic
Thu 01:45:00 AM 49.5033 -26.0504 80° East 525 604 33,000  Level FlightAware Transoceanic
Thu 01:46:00 AM 49.5272 -25.8288 81° East 525 604 33,000  Level FlightAware Transoceanic
Thu 01:47:00 AM 49.5508 -25.6069 81° East 525 604 33,000  Level FlightAware Transoceanic
Thu 01:48:00 AM 49.5739 -25.3848 81° East 525 604 33,000  Level FlightAware Transoceanic
Thu 01:49:00 AM 49.5966 -25.1625 81° East 525 604 33,000  Level FlightAware Transoceanic
Thu 01:50:00 AM 49.6189 -24.9399 81° East 525 604 33,000  Level FlightAware Transoceanic
Thu 01:51:00 AM 49.6408 -24.7172 81° East 525 604 33,000  Level FlightAware Transoceanic
Thu 01:52:00 AM 49.6622 -24.4943 82° East 525 604 33,000  Level FlightAware Transoceanic
Thu 01:53:00 AM 49.6832 -24.2712 82° East 525 604 33,000  Level FlightAware Transoceanic
Thu 01:54:00 AM 49.7038 -24.0479 82° East 525 604 33,000  Level FlightAware Transoceanic
Thu 01:55:00 AM 49.7239 -23.8244 82° East 525 604 33,000  Level FlightAware Transoceanic
Thu 01:56:00 AM 49.7436 -23.6007 82° East 525 604 33,000  Level FlightAware Transoceanic
Thu 01:57:00 AM 49.7629 -23.3768 82° East 525 604 33,000  Level FlightAware Transoceanic
Thu 01:58:00 AM 49.7818 -23.1528 83° East 525 604 33,000  Level FlightAware Transoceanic
Thu 01:59:00 AM 49.8002 -22.9286 83° East 525 604 33,000  Level FlightAware Transoceanic
Thu 02:00:00 AM 49.8182 -22.7042 83° East 525 604 33,000  Level FlightAware Transoceanic
Thu 02:01:00 AM 49.8357 -22.4797 83° East 525 604 33,000  Level FlightAware Transoceanic
Thu 02:02:00 AM 49.8528 -22.2550 83° East 525 604 33,000  Level FlightAware Transoceanic
Thu 02:03:00 AM 49.8695 -22.0301 84° East 525 604 33,000  Level FlightAware Transoceanic
Thu 02:04:00 AM 49.8858 -21.8051 84° East 525 604 33,000  Level FlightAware Transoceanic
Thu 02:05:00 AM 49.9016 -21.5800 84° East 525 604 33,000  Level FlightAware Transoceanic
Thu 02:06:00 AM 49.9169 -21.3547 84° East 525 604 33,000  Level FlightAware Transoceanic
Thu 02:07:00 AM 49.9319 -21.1292 84° East 525 604 33,000  Level FlightAware Transoceanic
Thu 02:08:00 AM 49.9464 -20.9036 84° East 525 604 33,000  Level FlightAware Transoceanic
Thu 02:09:00 AM 49.9604 -20.6779 85° East 525 604 33,000  Level FlightAware Transoceanic
Thu 02:10:00 AM 49.9741 -20.4521 85° East 525 604 33,000  Level FlightAware Transoceanic
Thu 02:11:00 AM 49.9873 -20.2261 85° East 525 604 33,000 44 Level FlightAware Transoceanic
Thu 02:12:00 AM 49.9999 -20.0021 85° East  Level FlightAware Approximate
Thu 02:13:00 AM 50.0116 -19.7779 85° East  Level FlightAware Approximate
Thu 02:14:00 AM 49.9931 -19.7795 93° East  Level FlightAware Approximate
Thu 02:15:00 AM 49.9856 -19.5549 93° East  Level FlightAware Approximate
Thu 02:16:00 AM 49.9776 -19.3304 93° East  Level FlightAware Approximate
Thu 02:17:00 AM 49.9693 -19.1064 93° East  Level FlightAware Approximate
Thu 02:18:00 AM 49.9605 -18.8825 93° East  Level FlightAware Approximate
Thu 02:19:00 AM 49.9513 -18.6586 94° East  Level FlightAware Approximate
Thu 02:20:00 AM 49.9417 -18.4348 94° East  Level FlightAware Approximate
Thu 02:21:00 AM 49.9316 -18.2111 94° East  Level FlightAware Approximate
Thu 02:22:00 AM 49.9211 -17.9875 94° East  Level FlightAware Approximate
Thu 02:23:00 AM 49.9102 -17.7640 94° East  Level FlightAware Approximate
Thu 02:24:00 AM 49.8988 -17.5406 94° East  Level FlightAware Approximate
Thu 02:25:00 AM 49.8870 -17.3174 95° East  Level FlightAware Approximate
Thu 02:26:00 AM 49.8748 -17.0942 95° East  Level FlightAware Approximate
Thu 02:27:00 AM 49.8622 -16.8711 95° East  Level FlightAware Approximate
Thu 02:28:00 AM 49.8491 -16.6482 95° East  Level FlightAware Approximate
Thu 02:29:00 AM 49.8356 -16.4254 95° East  Level FlightAware Approximate
Thu 02:30:00 AM 49.8217 -16.2027 95° East  Level FlightAware Approximate
Thu 02:31:00 AM 49.8074 -15.9801 96° East  Level FlightAware Approximate
Thu 02:32:00 AM 49.7926 -15.7577 96° East  Level FlightAware Approximate
Thu 02:33:00 AM 49.7774 -15.5354 96° East  Level FlightAware Approximate
Thu 02:34:00 AM 49.7617 -15.3132 96° East  Level FlightAware Approximate
Thu 02:35:00 AM 49.7457 -15.0913 96° East  Level FlightAware Approximate
Thu 02:36:00 AM 49.7292 -14.8694 96° East  Level FlightAware Approximate
Thu 02:37:00 AM 49.7123 -14.6477 97° East  Level FlightAware Approximate
Thu 02:38:00 AM 49.6950 -14.4262 97° East  Level FlightAware Approximate
Thu 02:39:00 AM 49.6773 -14.2048 97° East  Level FlightAware Approximate
Thu 02:40:00 AM 49.6591 -13.9836 97° East  Level FlightAware Approximate
Thu 02:41:00 AM 49.6405 -13.7625 97° East  Level FlightAware Approximate
Thu 02:42:00 AM 49.6215 -13.5416 97° East  Level FlightAware Approximate
Thu 02:43:00 AM 49.6021 -13.3209 98° East  Level FlightAware Approximate
Thu 02:44:00 AM 49.5822 -13.1004 98° East  Level FlightAware Approximate
Thu 02:45:00 AM 49.5620 -12.8800 98° East  Level FlightAware Approximate
Thu 02:46:00 AM 49.5413 -12.6599 98° East  Level FlightAware Approximate
Thu 02:47:00 AM 49.5202 -12.4399 98° East  Level FlightAware Approximate
Thu 02:48:00 AM 49.4987 -12.2201 98° East  Level FlightAware Approximate
Thu 02:49:00 AM 49.4767 -12.0005 99° East  Level FlightAware Approximate
Thu 02:50:00 AM 49.4544 -11.7811 99° East  Level FlightAware Approximate
Thu 02:51:00 AM 49.4316 -11.5619 99° East  Level FlightAware Approximate
Thu 02:52:00 AM 49.4084 -11.3429 99° East  Level FlightAware Approximate
Thu 02:53:00 AM 49.3848 -11.1242 99° East  Level FlightAware Approximate
Thu 02:54:00 AM 49.3609 -10.9056 99° East  Level FlightAware Approximate
Thu 02:55:00 AM 49.3364 -10.6872 100° East  Level FlightAware Approximate
Thu 02:55:52 AM 49.4320 -10.2260 100° East 558 642 35,000  Level FlightAware ADS-B
Thu 02:56:00 AM 49.3116 -10.4691 100° East  Level FlightAware Approximate
Thu 02:56:29 AM 49.4140 -10.1050 103° East 558 642 35,000  Level FlightAware ADS-B
Thu 02:57:03 AM 49.3900 -9.9520 103° East 562 647 35,000  Level FlightAware ADS-B
Thu 02:57:43 AM 49.3660 -9.7970 103° East 562 647 35,000  Level FlightAware ADS-B
Thu 02:58:15 AM 49.3470 -9.6770 104° East 562 647 35,000  Level FlightAware ADS-B
Thu 02:58:50 AM 49.3290 -9.5570 103° East 562 647 35,000  Level FlightAware ADS-B
Thu 02:59:30 AM 49.3030 -9.3940 104° East 563 648 35,000  Level FlightAware ADS-B
Thu 02:59:59 AM 49.2820 -9.2710 105° East 562 647 35,000  Level FlightAware ADS-B
Thu 03:00:35 AM 49.2590 -9.1320 104° East 563 648 35,000  Level FlightAware ADS-B
Thu 03:01:10 AM 49.2370 -8.9970 104° East 564 649 35,000  Level FlightAware ADS-B
Thu 03:01:44 AM 49.2154 -8.8602 104° East 488 562 35,000  Level FlightAware UK
Thu 03:01:45 AM 49.2150 -8.8620 104° East 566 651 35,000  Level FlightAware ADS-B
Thu 03:02:19 AM 49.1940 -8.7340 104° East 567 652 35,000  Level FlightAware ADS-B
Thu 03:02:58 AM 49.1670 -8.5750 105° East 566 651 35,000  Level FlightAware ADS-B
Thu 03:03:33 AM 49.1450 -8.4480 105° East 567 652 35,000  Level FlightAware ADS-B
Thu 03:04:05 AM 49.1230 -8.3200 105° East 567 652 35,000  Level FlightAware ADS-B
Thu 03:04:41 AM 49.1000 -8.1810 104° East 567 652 35,000  Level FlightAware ADS-B
Thu 03:05:14 AM 49.0770 -8.0472 104° East 486 559 35,000  Level FlightAware UK
Thu 03:05:17 AM 49.0750 -8.0420 104° East 567 652 35,000  Level FlightAware ADS-B
Thu 03:05:49 AM 49.0540 -7.9180 104° East 569 655 35,000  Level FlightAware ADS-B
Thu 03:05:50 AM 49.0525 -7.9076 104° East 490 564 35,000  Level FlightAware UK
Thu 03:06:20 AM 49.0320 -7.7917 104° East 488 562 35,000  Level FlightAware UK
Thu 03:06:26 AM 49.0290 -7.7750 104° East 568 654 35,000  Level FlightAware ADS-B
Thu 03:07:03 AM 49.0030 -7.6280 105° East 568 654 35,000  Level FlightAware ADS-B
Thu 03:07:39 AM 48.9700 -7.4960 111° Southeast 554 638 35,000  Level FlightAware ADS-B
Thu 03:08:11 AM 48.9350 -7.3840 115° Southeast 551 634 35,000  Level FlightAware ADS-B
Thu 03:08:47 AM 48.8980 -7.2600 114° Southeast 550 633 35,000  Level FlightAware ADS-B
Thu 03:09:20 AM 48.8593 -7.1381 114° Southeast 484 557 35,000  Level FlightAware UK
Thu 03:09:23 AM 48.8570 -7.1360 114° Southeast 547 629 35,000  Level FlightAware ADS-B
Thu 03:09:59 AM 48.8170 -7.0160 117° Southeast 548 631 35,000  Level FlightAware ADS-B
Thu 03:10:31 AM 48.7800 -6.9030 116° Southeast 550 633 35,000  Level FlightAware ADS-B
Thu 03:11:01 AM 48.7450 -6.8000 117° Southeast 551 634 35,000  Level FlightAware ADS-B
Thu 03:11:40 AM 48.7020 -6.6680 116° Southeast 552 635 35,000  Level FlightAware ADS-B
Thu 03:12:16 AM 48.6600 -6.5400 116° Southeast 554 638 35,000  Level FlightAware ADS-B
Thu 03:12:51 AM 48.6201 -6.4155 116° Southeast 490 564 35,000  Level FlightAware UK
Thu 03:12:53 AM 48.6190 -6.4150 116° Southeast 555 639 35,000  Level FlightAware ADS-B
Thu 03:13:28 AM 48.5770 -6.2910 117° Southeast 554 638 35,000  Level FlightAware ADS-B
Thu 03:14:00 AM 48.5430 -6.1870 116° Southeast 554 638 35,000  Level FlightAware ADS-B
Thu 03:14:33 AM 48.5021 -6.0626 116° Southeast 488 562 35,000  Level FlightAware UK
Thu 03:14:37 AM 48.5000 -6.0600 116° Southeast 554 638 35,000  Level FlightAware ADS-B
Thu 03:15:10 AM 48.4620 -5.9460 117° Southeast 554 638 35,000  Level FlightAware ADS-B
Thu 03:15:46 AM 48.4190 -5.8190 117° Southeast 554 638 35,000  Level FlightAware ADS-B
Thu 03:16:23 AM 48.3750 -5.6930 118° Southeast 554 638 35,000  Level FlightAware ADS-B
Thu 03:16:56 AM 48.3370 -5.5800 117° Southeast 556 640 35,000  Level FlightAware ADS-B
Thu 03:17:31 AM 48.2960 -5.4630 118° Southeast 559 643 35,000  Level FlightAware ADS-B
Thu 03:18:03 AM 48.2560 -5.3460 117° Southeast 560 644 35,000  Level FlightAware ADS-B
Thu 03:18:44 AM 48.2060 -5.2050 118° Southeast 562 647 35,000  Level FlightAware ADS-B
Thu 03:19:14 AM 48.1690 -5.1020 118° Southeast 563 648 35,000  Level FlightAware ADS-B
Thu 03:19:49 AM 48.1300 -4.9880 117° Southeast 564 649 35,000  Level FlightAware ADS-B
Thu 03:20:28 AM 48.0820 -4.8530 118° Southeast 565 650 35,000  Level FlightAware ADS-B
Thu 03:21:04 AM 48.0360 -4.7260 118° Southeast 565 650 35,000  Level FlightAware ADS-B
Thu 03:21:36 AM 47.9970 -4.6160 118° Southeast 565 650 35,000  Level FlightAware ADS-B
Thu 03:22:14 AM 47.9520 -4.4880 118° Southeast 564 649 35,000  Level FlightAware ADS-B
Thu 03:22:29 AM 47.9519 -4.4885 253° West 564 649 35,000  Level FlightAware ADS-B (LFBU / ANG)
Thu 03:23:21 AM 47.8690 -4.2600 118° Southeast 562 647 35,000  Level FlightAware ADS-B
Thu 03:23:58 AM 47.8200 -4.1240 118° Southeast 562 647 35,000  Level FlightAware ADS-B
Thu 03:24:21 AM 47.7920 -4.0491 119° Southeast 559 643 35,000  Level FlightAware ADS-B (LFBU / ANG)
Thu 03:24:57 AM 47.7475 -3.9273 118° Southeast 563 648 35,000  Level FlightAware ADS-B (LFBU / ANG)
Thu 03:25:42 AM 47.6950 -3.7820 118° Southeast 562 647 35,000  Level FlightAware ADS-B
Thu 03:26:00 AM 47.6716 -3.7208 120° Southeast 563 648 35,000  Level FlightAware ADS-B (LFBU / ANG)
Thu 03:26:51 AM 47.6080 -3.5490 119° Southeast 562 647 35,000  Level FlightAware ADS-B
Thu 03:27:25 AM 47.5640 -3.4310 119° Southeast 560 644 35,000  Level FlightAware ADS-B
Thu 03:28:02 AM 47.5180 -3.3070 119° Southeast 561 646 35,000  Level FlightAware ADS-B
Thu 03:28:15 AM 47.5218 -3.3173 298° West 562 647 35,000  Level FlightAware ADS-B (LFBU / ANG)
Thu 03:29:10 AM 47.4322 -3.0830 119° Southeast 562 647 35,000  Level FlightAware ADS-B (LFBU / ANG)
Thu 03:29:48 AM 47.3820 -2.9490 119° Southeast 562 647 35,000  Level FlightAware ADS-B
Thu 03:30:08 AM 47.3562 -2.8824 120° Southeast 563 648 35,000  Level FlightAware ADS-B (LFBU / ANG)
Thu 03:30:57 AM 47.2930 -2.7150 119° Southeast 564 649 35,000  Level FlightAware ADS-B
Thu 03:31:05 AM 47.2822 -2.6885 121° Southeast 565 650 35,000  Level FlightAware ADS-B (LFBU / ANG)
Thu 03:31:45 AM 47.2416 -2.5850 120° Southeast 564 649 35,000  Level FlightAware ADS-B (LFBU / ANG)
Thu 03:32:42 AM 47.1590 -2.3720 120° Southeast 564 649 35,000  Level FlightAware ADS-B
Thu 03:33:18 AM 47.1130 -2.2530 120° Southeast 563 648 35,000  Level FlightAware ADS-B
Thu 03:33:53 AM 47.0650 -2.1300 120° Southeast 563 648 35,000  Level FlightAware ADS-B
Thu 03:34:23 AM 47.0270 -2.0340 120° Southeast 564 649 35,000  Level FlightAware ADS-B
Thu 03:35:01 AM 46.9770 -1.9090 120° Southeast 562 647 35,000  Level FlightAware ADS-B
Thu 03:35:37 AM 46.9290 -1.7870 120° Southeast 561 646 35,000  Level FlightAware ADS-B
Thu 03:36:14 AM 46.8840 -1.6730 120° Southeast 562 647 35,000  Level FlightAware ADS-B
Thu 03:36:46 AM 46.8390 -1.5610 120° Southeast 562 647 35,000  Level FlightAware ADS-B
Thu 03:37:22 AM 46.7930 -1.4470 120° Southeast 562 647 35,000  Level FlightAware ADS-B
Thu 03:37:58 AM 46.7450 -1.3290 121° Southeast 561 646 35,000  Level FlightAware ADS-B
Thu 03:38:34 AM 46.6990 -1.2120 120° Southeast 564 649 35,000  Level FlightAware ADS-B
Thu 03:39:08 AM 46.6640 -1.0880 112° Southeast 570 656 35,000  Level FlightAware ADS-B
Thu 03:39:42 AM 46.6320 -0.9700 112° Southeast 571 657 35,000  Level FlightAware ADS-B
Thu 03:40:24 AM 46.5900 -0.8210 112° Southeast 571 657 35,000  Level FlightAware ADS-B
Thu 03:41:00 AM 46.5560 -0.6880 110° East 573 659 35,000  Level FlightAware ADS-B
Thu 03:41:35 AM 46.5240 -0.5660 111° Southeast 573 659 35,000  Level FlightAware ADS-B
Thu 03:42:08 AM 46.4920 -0.4480 111° Southeast 572 658 35,000  Level FlightAware ADS-B
Thu 03:42:42 AM 46.4600 -0.3270 111° Southeast 572 658 35,000  Level FlightAware ADS-B
Thu 03:43:20 AM 46.4250 -0.1980 111° Southeast 572 658 35,000  Level FlightAware ADS-B
Thu 03:43:56 AM 46.3850 -0.0650 114° Southeast 570 656 35,000  Level FlightAware ADS-B
Thu 03:44:28 AM 46.3460 0.0470 117° Southeast 569 655 35,000  Level FlightAware ADS-B
Thu 03:45:03 AM 46.3050 0.1660 116° Southeast 569 655 35,000  Level FlightAware ADS-B
Thu 03:45:40 AM 46.2620 0.2840 118° Southeast 569 655 35,000  Level FlightAware ADS-B
Thu 03:46:15 AM 46.2180 0.4090 117° Southeast 569 655 35,000  Level FlightAware ADS-B
Thu 03:46:47 AM 46.1800 0.5130 118° Southeast 569 655 35,000  Level FlightAware ADS-B
Thu 03:47:24 AM 46.1350 0.6370 118° Southeast 569 655 35,000  Level FlightAware ADS-B
Thu 03:47:59 AM 46.0920 0.7550 118° Southeast 570 656 35,000  Level FlightAware ADS-B
Thu 03:48:36 AM 46.0470 0.8790 118° Southeast 569 655 35,000  Level FlightAware ADS-B
Thu 03:49:08 AM 46.0060 0.9890 118° Southeast 570 656 35,000  Level FlightAware ADS-B
Thu 03:49:44 AM 45.9610 1.1100 118° Southeast 570 656 35,000  Level FlightAware ADS-B
Thu 03:50:17 AM 45.9200 1.2160 119° Southeast 570 656 35,000  Level FlightAware ADS-B
Thu 03:50:52 AM 45.8760 1.3360 118° Southeast 570 656 35,000  Level FlightAware ADS-B
Thu 03:51:29 AM 45.8300 1.4560 119° Southeast 570 656 35,000  Level FlightAware ADS-B
Thu 03:52:06 AM 45.7840 1.5780 118° Southeast 571 657 35,000  Level FlightAware ADS-B
Thu 03:52:38 AM 45.7440 1.6810 119° Southeast 571 657 35,000  Level FlightAware ADS-B
Thu 03:53:13 AM 45.7030 1.8070 115° Southeast 575 662 35,000  Level FlightAware ADS-B
Thu 03:53:49 AM 45.6720 1.9330 109° East 575 662 35,000  Level FlightAware ADS-B
Thu 03:54:26 AM 45.6400 2.0660 109° East 575 662 35,000  Level FlightAware ADS-B
Thu 03:54:56 AM 45.6170 2.1670 108° East 575 662 35,000  Level FlightAware ADS-B
Thu 03:55:34 AM 45.5860 2.3120 107° East 575 662 35,000  Level FlightAware ADS-B
Thu 03:56:09 AM 45.5590 2.4390 107° East 575 662 35,000  Level FlightAware ADS-B
Thu 03:56:45 AM 45.5300 2.5730 107° East 574 661 35,000  Level FlightAware ADS-B
Thu 03:57:16 AM 45.5050 2.6810 108° East 573 659 35,000  Level FlightAware ADS-B
Thu 03:57:52 AM 45.4770 2.8090 107° East 571 657 35,000  Level FlightAware ADS-B
Thu 03:58:28 AM 45.4460 2.9420 108° East 571 657 35,000  Level FlightAware ADS-B
Thu 03:59:03 AM 45.4180 3.0630 108° East 571 657 35,000 429 Level FlightAware ADS-B
Thu 03:59:38 AM 45.3900 3.1850 108° East 573 659 35,500 1,029 Climbing FlightAware ADS-B
Thu 04:00:13 AM 45.3600 3.3130 108° East 575 662 36,200 1,083 Climbing FlightAware ADS-B
Thu 04:00:50 AM 45.3290 3.4460 108° East 574 661 36,800 696 Climbing FlightAware ADS-B
Thu 04:01:22 AM 45.3020 3.5600 109° East 575 662 37,000 174 Climbing FlightAware ADS-B
Thu 04:01:59 AM 45.2710 3.6920 108° East 573 659 37,000  Level FlightAware ADS-B
Thu 04:02:34 AM 45.2420 3.8170 108° East 571 657 37,000  Level FlightAware ADS-B
Thu 04:03:10 AM 45.2170 3.9430 106° East 570 656 37,000  Level FlightAware ADS-B
Thu 04:03:43 AM 45.1930 4.0610 106° East 569 655 37,000  Level FlightAware ADS-B
Thu 04:04:19 AM 45.1660 4.1970 106° East 567 652 37,000  Level FlightAware ADS-B
Thu 04:04:55 AM 45.1410 4.3180 106° East 566 651 37,000  Level FlightAware ADS-B
Thu 04:05:25 AM 45.1130 4.4250 110° East 564 649 37,000  Level FlightAware ADS-B
Thu 04:05:52 AM 45.0730 4.5120 123° Southeast 559 643 37,000  Level FlightAware ADS-B
Thu 04:06:24 AM 45.0220 4.5980 130° Southeast 556 640 37,000  Level FlightAware ADS-B
Thu 04:07:00 AM 44.9600 4.6960 132° Southeast 554 638 37,000  Level FlightAware ADS-B
Thu 04:07:36 AM 44.9010 4.7940 130° Southeast 554 638 37,000  Level FlightAware ADS-B
Thu 04:08:07 AM 44.8470 4.8810 131° Southeast 552 635 37,000  Level FlightAware ADS-B
Thu 04:08:46 AM 44.7820 4.9830 132° Southeast 554 638 37,000  Level FlightAware ADS-B
Thu 04:09:21 AM 44.7220 5.0780 132° Southeast 554 638 37,000  Level FlightAware ADS-B
Thu 04:09:55 AM 44.6650 5.1700 131° Southeast 552 635 37,000  Level FlightAware ADS-B
Thu 04:10:28 AM 44.6110 5.2610 130° Southeast 557 641 37,000  Level FlightAware ADS-B
Thu 04:11:05 AM 44.5590 5.3770 122° Southeast 558 642 37,000  Level FlightAware ADS-B
Thu 04:11:41 AM 44.5090 5.4870 122° Southeast 559 643 37,000  Level FlightAware ADS-B
Thu 04:12:17 AM 44.4600 5.5970 122° Southeast 558 642 37,000  Level FlightAware ADS-B
Thu 04:12:51 AM 44.4150 5.6940 123° Southeast 560 644 37,000  Level FlightAware ADS-B
Thu 04:13:25 AM 44.3670 5.8010 122° Southeast 561 646 37,000  Level FlightAware ADS-B
Thu 04:14:00 AM 44.3170 5.9080 123° Southeast 563 648 37,000  Level FlightAware ADS-B
Thu 04:14:33 AM 44.2720 6.0050 123° Southeast 562 647 37,000  Level FlightAware ADS-B
Thu 04:15:09 AM 44.2200 6.1180 123° Southeast 563 648 37,000  Level FlightAware ADS-B
Thu 04:15:44 AM 44.1700 6.2280 122° Southeast 562 647 37,000  Level FlightAware ADS-B
Thu 04:16:17 AM 44.1230 6.3280 123° Southeast 561 646 37,000  Level FlightAware ADS-B
Thu 04:16:54 AM 44.0710 6.4370 124° Southeast 565 650 37,000  Level FlightAware ADS-B
Thu 04:17:28 AM 44.0230 6.5410 123° Southeast 568 654 37,000  Level FlightAware ADS-B
Thu 04:18:05 AM 43.9700 6.6540 123° Southeast 568 654 37,000  Level FlightAware ADS-B
Thu 04:18:39 AM 43.9270 6.7450 123° Southeast 563 648 37,000  Level FlightAware ADS-B
Thu 04:19:21 AM 43.8600 6.8840 124° Southeast 566 651 37,000  Level FlightAware ADS-B
Thu 04:19:55 AM 43.8120 6.9870 123° Southeast 567 652 37,000  Level FlightAware ADS-B
Thu 04:20:31 AM 43.7580 7.0990 124° Southeast 568 654 37,000  Level FlightAware ADS-B
Thu 04:21:03 AM 43.7130 7.1930 123° Southeast 568 654 37,000  Level FlightAware ADS-B
Thu 04:21:39 AM 43.6640 7.2960 123° Southeast 569 655 37,000  Level FlightAware ADS-B
Thu 04:22:19 AM 43.6030 7.4200 124° Southeast 570 656 37,000  Level FlightAware ADS-B
Thu 04:22:51 AM 43.5580 7.5140 123° Southeast 571 657 37,000  Level FlightAware ADS-B
Thu 04:23:25 AM 43.5040 7.6250 124° Southeast 571 657 37,000  Level FlightAware ADS-B
Thu 04:24:02 AM 43.4510 7.7340 124° Southeast 569 655 37,000  Level FlightAware ADS-B
Thu 04:24:37 AM 43.3980 7.8420 124° Southeast 571 657 37,000  Level FlightAware ADS-B
Thu 04:25:10 AM 43.3520 7.9350 124° Southeast 570 656 37,000  Level FlightAware ADS-B
Thu 04:25:47 AM 43.2950 8.0520 124° Southeast 571 657 37,000  Level FlightAware ADS-B
Thu 04:26:21 AM 43.2450 8.1510 125° Southeast 571 657 37,000  Level FlightAware ADS-B
Thu 04:26:53 AM 43.1960 8.2490 124° Southeast 570 656 37,000  Level FlightAware ADS-B
Thu 04:27:31 AM 43.1410 8.3590 124° Southeast 570 656 37,000  Level FlightAware ADS-B
Thu 04:28:09 AM 43.0860 8.4700 124° Southeast 570 656 37,000  Level FlightAware ADS-B
Thu 04:28:40 AM 43.0410 8.5590 125° Southeast 571 657 37,000  Level FlightAware ADS-B
Thu 04:29:17 AM 42.9830 8.6740 125° Southeast 570 656 37,000  Level FlightAware ADS-B
Thu 04:29:53 AM 42.9300 8.7780 125° Southeast 570 656 37,000  Level FlightAware ADS-B
Thu 04:30:29 AM 42.8740 8.8900 124° Southeast 570 656 37,000  Level FlightAware ADS-B
Thu 04:31:01 AM 42.8250 8.9850 125° Southeast 570 656 37,000  Level FlightAware ADS-B
Thu 04:31:37 AM 42.7730 9.0880 124° Southeast 571 657 37,000  Level FlightAware ADS-B
Thu 04:32:13 AM 42.7180 9.1940 125° Southeast 571 657 37,000  Level FlightAware ADS-B
Thu 04:32:48 AM 42.6650 9.2970 125° Southeast 571 657 37,000  Level FlightAware ADS-B
Thu 04:33:20 AM 42.6180 9.3880 125° Southeast 571 657 37,000  Level FlightAware ADS-B
Thu 04:33:56 AM 42.5680 9.5050 120° Southeast 568 654 37,000  Level FlightAware ADS-B
Thu 04:34:33 AM 42.5340 9.6210 112° Southeast 567 652 37,000  Level FlightAware ADS-B
Thu 04:35:04 AM 42.5070 9.7280 109° East 566 651 37,000  Level FlightAware ADS-B
Thu 04:35:41 AM 42.4750 9.8510 109° East 565 650 37,000  Level FlightAware ADS-B
Thu 04:36:18 AM 42.4420 9.9740 110° East 564 649 37,000  Level FlightAware ADS-B
Thu 04:36:53 AM 42.4100 10.0940 110° East 564 649 37,000  Level FlightAware ADS-B
Thu 04:37:25 AM 42.3820 10.1960 110° East 564 649 37,000  Level FlightAware ADS-B
Thu 04:38:02 AM 42.3440 10.3160 113° Southeast 569 655 37,000  Level FlightAware ADS-B
Thu 04:38:38 AM 42.2920 10.4270 122° Southeast 569 655 37,000  Level FlightAware ADS-B
Thu 04:39:14 AM 42.2420 10.5280 124° Southeast 570 656 37,000  Level FlightAware ADS-B
Thu 04:39:46 AM 42.1910 10.6270 125° Southeast 571 657 37,000  Level FlightAware ADS-B
Thu 04:40:22 AM 42.1360 10.7280 126° Southeast 572 658 37,000  Level FlightAware ADS-B
Thu 04:40:58 AM 42.0790 10.8350 126° Southeast 572 658 37,000  Level FlightAware ADS-B
Thu 04:41:32 AM 42.0270 10.9330 126° Southeast 572 658 37,000  Level FlightAware ADS-B
Thu 04:42:08 AM 41.9720 11.0350 126° Southeast 572 658 37,000  Level FlightAware ADS-B
Thu 04:42:40 AM 41.9220 11.1300 125° Southeast 572 658 37,000  Level FlightAware ADS-B
Thu 04:43:18 AM 41.8630 11.2400 126° Southeast 573 659 37,000  Level FlightAware ADS-B
Thu 04:43:54 AM 41.8080 11.3400 126° Southeast 573 659 37,000  Level FlightAware ADS-B
Thu 04:44:25 AM 41.7600 11.4300 126° Southeast 573 659 37,000  Level FlightAware ADS-B
Thu 04:45:02 AM 41.7040 11.5360 125° Southeast 572 658 37,000  Level FlightAware ADS-B
Thu 04:45:38 AM 41.6460 11.6390 127° Southeast 572 658 37,000  Level FlightAware ADS-B
Thu 04:46:12 AM 41.5930 11.7360 126° Southeast 573 659 37,000  Level FlightAware ADS-B
Thu 04:46:45 AM 41.5420 11.8300 126° Southeast 572 658 37,000  Level FlightAware ADS-B
Thu 04:47:22 AM 41.4840 11.9380 126° Southeast 573 659 37,000  Level FlightAware ADS-B
Thu 04:47:56 AM 41.4310 12.0320 127° Southeast 572 658 37,000  Level FlightAware ADS-B
Thu 04:48:32 AM 41.3730 12.1370 126° Southeast 573 659 37,000  Level FlightAware ADS-B
Thu 04:49:08 AM 41.3170 12.2390 126° Southeast 574 661 37,000  Level FlightAware ADS-B
Thu 04:49:40 AM 41.2660 12.3290 127° Southeast 573 659 37,000  Level FlightAware ADS-B
Thu 04:50:16 AM 41.2100 12.4280 127° Southeast 574 661 37,000  Level FlightAware ADS-B
Thu 04:50:52 AM 41.1530 12.5300 127° Southeast 573 659 37,000  Level FlightAware ADS-B
Thu 04:51:26 AM 41.1000 12.6260 126° Southeast 573 659 37,000  Level FlightAware ADS-B
Thu 04:52:04 AM 41.0390 12.7330 127° Southeast 573 659 37,000  Level FlightAware ADS-B
Thu 04:52:36 AM 40.9910 12.8170 127° Southeast 574 661 37,000  Level FlightAware ADS-B
Thu 04:53:12 AM 40.9300 12.9270 126° Southeast 574 661 37,000  Level FlightAware ADS-B
Thu 04:53:44 AM 40.8880 13.0120 123° Southeast 572 658 37,000  Level FlightAware ADS-B
Thu 04:54:20 AM 40.8370 13.1270 120° Southeast 571 657 37,000  Level FlightAware ADS-B
Thu 04:54:50 AM 40.7970 13.2200 120° Southeast 572 658 37,000  Level FlightAware ADS-B
Thu 04:55:30 AM 40.7460 13.3350 120° Southeast 573 659 37,000  Level FlightAware ADS-B
Thu 04:56:07 AM 40.6960 13.4500 120° Southeast 573 659 37,000  Level FlightAware ADS-B
Thu 04:56:43 AM 40.6480 13.5590 120° Southeast 573 659 37,000  Level FlightAware ADS-B
Thu 04:57:13 AM 40.6090 13.6490 120° Southeast 574 661 37,000  Level FlightAware ADS-B
Thu 04:57:51 AM 40.5570 13.7640 121° Southeast 573 659 37,000  Level FlightAware ADS-B
Thu 04:58:26 AM 40.5100 13.8690 120° Southeast 573 659 37,000  Level FlightAware ADS-B
Thu 04:59:02 AM 40.4610 13.9770 121° Southeast 574 661 37,000  Level FlightAware ADS-B
Thu 04:59:39 AM 40.4130 14.0850 120° Southeast 574 661 37,000  Level FlightAware ADS-B
Thu 05:00:11 AM 40.3690 14.1800 121° Southeast 573 659 37,000  Level FlightAware ADS-B
Thu 05:00:44 AM 40.3230 14.2820 121° Southeast 575 662 37,000  Level FlightAware ADS-B
Thu 05:01:22 AM 40.2720 14.3960 120° Southeast 575 662 37,000  Level FlightAware ADS-B
Thu 05:01:58 AM 40.2230 14.5040 121° Southeast 576 663 37,000  Level FlightAware ADS-B
Thu 05:02:32 AM 40.1750 14.6080 121° Southeast 577 664 37,000  Level FlightAware ADS-B
Thu 05:03:08 AM 40.1270 14.7130 121° Southeast 575 662 37,000  Level FlightAware ADS-B
Thu 05:03:40 AM 40.0830 14.8080 121° Southeast 575 662 37,000  Level FlightAware ADS-B
Thu 05:04:16 AM 40.0340 14.9150 121° Southeast 575 662 37,000  Level FlightAware ADS-B
Thu 05:04:52 AM 39.9830 15.0250 121° Southeast 574 661 37,000  Level FlightAware ADS-B
Thu 05:05:26 AM 39.9370 15.1250 121° Southeast 573 659 37,000  Level FlightAware ADS-B
Thu 05:06:02 AM 39.8870 15.2310 122° Southeast 573 659 37,000  Level FlightAware ADS-B
Thu 05:06:38 AM 39.8400 15.3320 121° Southeast 573 659 37,000  Level FlightAware ADS-B
Thu 05:07:12 AM 39.7920 15.4340 121° Southeast 574 661 37,000  Level FlightAware ADS-B
Thu 05:07:44 AM 39.7460 15.5320 121° Southeast 573 659 37,000  Level FlightAware ADS-B
Thu 05:08:24 AM 39.6930 15.6460 121° Southeast 573 659 37,000  Level FlightAware ADS-B
Thu 05:08:56 AM 39.6470 15.7400 122° Southeast 573 659 37,000  Level FlightAware ADS-B
Thu 05:09:30 AM 39.6000 15.8420 121° Southeast 572 658 37,000  Level FlightAware ADS-B
Thu 05:10:08 AM 39.5590 15.9560 115° Southeast 562 647 37,000  Level FlightAware ADS-B
Thu 05:10:40 AM 39.5290 16.0560 111° Southeast 562 647 37,000  Level FlightAware ADS-B
Thu 05:11:17 AM 39.5000 16.1570 110° East 563 648 37,000  Level FlightAware ADS-B
Thu 05:11:52 AM 39.4600 16.2810 113° Southeast 561 646 37,000  Level FlightAware ADS-B
Thu 05:12:28 AM 39.4230 16.3930 113° Southeast 563 648 37,000  Level FlightAware ADS-B
Thu 05:13:00 AM 39.3900 16.4950 113° Southeast 563 648 37,000  Level FlightAware ADS-B
Thu 05:13:38 AM 39.3510 16.6090 114° Southeast 562 647 37,000  Level FlightAware ADS-B
Thu 05:14:14 AM 39.3160 16.7130 113° Southeast 561 646 37,000  Level FlightAware ADS-B
Thu 05:14:46 AM 39.2820 16.8150 113° Southeast 562 647 37,000  Level FlightAware ADS-B
Thu 05:15:21 AM 39.2450 16.9220 114° Southeast 562 647 37,000  Level FlightAware ADS-B
Thu 05:15:58 AM 39.2070 17.0360 113° Southeast 560 644 37,000  Level FlightAware ADS-B
Thu 05:16:30 AM 39.1730 17.1360 114° Southeast 560 644 37,000  Level FlightAware ADS-B
Thu 05:17:06 AM 39.1350 17.2460 114° Southeast 557 641 37,000  Level FlightAware ADS-B
Thu 05:17:42 AM 39.0970 17.3580 114° Southeast 557 641 37,000  Level FlightAware ADS-B
Thu 05:18:18 AM 39.0600 17.4680 113° Southeast 559 643 37,000  Level FlightAware ADS-B
Thu 05:18:50 AM 39.0260 17.5650 114° Southeast 558 642 37,000  Level FlightAware ADS-B
Thu 05:19:26 AM 38.9890 17.6710 114° Southeast 557 641 37,000  Level FlightAware ADS-B
Thu 05:20:02 AM 38.9510 17.7830 114° Southeast 559 643 37,000  Level FlightAware ADS-B
Thu 05:20:38 AM 38.9130 17.8920 114° Southeast 560 644 37,000  Level FlightAware ADS-B
Thu 05:21:14 AM 38.8750 18.0010 114° Southeast 561 646 37,000  Level FlightAware ADS-B
Thu 05:21:46 AM 38.8410 18.0980 114° Southeast 559 643 37,000  Level FlightAware ADS-B
Thu 05:22:22 AM 38.8030 18.2040 115° Southeast 560 644 37,000  Level FlightAware ADS-B
Thu 05:22:58 AM 38.7640 18.3120 115° Southeast 560 644 37,000  Level FlightAware ADS-B
Thu 05:23:34 AM 38.7250 18.4240 114° Southeast 560 644 37,000  Level FlightAware ADS-B
Thu 05:24:06 AM 38.6910 18.5210 114° Southeast 561 646 37,000  Level FlightAware ADS-B
Thu 05:24:44 AM 38.6500 18.6350 115° Southeast 560 644 37,000  Level FlightAware ADS-B
Thu 05:25:15 AM 38.6180 18.7230 115° Southeast 560 644 37,000  Level FlightAware ADS-B
Thu 05:25:52 AM 38.5770 18.8370 115° Southeast 561 646 37,000  Level FlightAware ADS-B
Thu 05:26:21 AM 38.5670 18.8640 115° Southeast 560 644 37,000  Level FlightAware ADS-B
Thu 05:27:10 AM 38.5190 19.0000 114° Southeast 560 644 37,000  Level FlightAware ADS-B
Thu 05:27:46 AM 38.4860 19.0930 114° Southeast 560 644 37,000  Level FlightAware ADS-B
Thu 05:28:22 AM 38.4540 19.1850 114° Southeast 560 644 37,000  Level FlightAware ADS-B
Thu 05:28:52 AM 38.4300 19.3340 102° East 555 639 37,000  Level FlightAware ADS-B
Thu 05:29:32 AM 38.3970 19.4580 109° East 558 642 37,000  Level FlightAware ADS-B
Thu 05:30:09 AM 38.3660 19.5770 108° East 559 643 37,000  Level FlightAware ADS-B
Thu 05:30:43 AM 38.3400 19.6700 110° East 561 646 37,000  Level FlightAware ADS-B
Thu 05:31:21 AM 38.3000 19.8230 108° East 563 648 37,000  Level FlightAware ADS-B
Thu 05:31:53 AM 38.2770 19.9050 110° East 562 647 37,000  Level FlightAware ADS-B
Thu 05:32:33 AM 38.2390 20.0280 111° Southeast 563 648 37,000  Level FlightAware ADS-B
Thu 05:33:16 AM 38.2010 20.1470 112° Southeast 563 648 37,000  Level FlightAware ADS-B
Thu 05:33:51 AM 38.1480 20.3140 112° Southeast 556 640 37,000  Level FlightAware ADS-B
Thu 05:34:22 AM 38.1190 20.4050 112° Southeast 557 641 37,000  Level FlightAware ADS-B
Thu 05:35:00 AM 38.0890 20.5040 111° Southeast 557 641 37,000  Level FlightAware ADS-B
Thu 05:35:34 AM 38.0510 20.6240 112° Southeast 555 639 37,000  Level FlightAware ADS-B
Thu 05:36:04 AM 38.0220 20.7180 111° Southeast 555 639 37,000  Level FlightAware ADS-B
Thu 05:36:40 AM 37.9910 20.8170 112° Southeast 554 638 37,000  Level FlightAware ADS-B
Thu 05:37:17 AM 37.9540 20.9320 112° Southeast 558 642 37,000  Level FlightAware ADS-B
Thu 05:37:55 AM 37.9140 21.0570 112° Southeast 562 647 37,000  Level FlightAware ADS-B
Thu 05:38:31 AM 37.8790 21.1670 112° Southeast 562 647 37,000  Level FlightAware ADS-B
Thu 05:39:11 AM 37.8420 21.2790 113° Southeast 562 647 37,000  Level FlightAware ADS-B
Thu 05:39:47 AM 37.8050 21.3950 112° Southeast 563 648 37,000  Level FlightAware ADS-B
Thu 05:40:20 AM 37.7750 21.4900 112° Southeast 563 648 37,000  Level FlightAware ADS-B
Thu 05:40:49 AM 37.7440 21.5810 113° Southeast 561 646 37,000  Level FlightAware ADS-B
Thu 05:41:31 AM 37.7020 21.7110 112° Southeast 559 643 37,000  Level FlightAware ADS-B
Thu 05:42:03 AM 37.6720 21.8040 112° Southeast 558 642 37,000  Level FlightAware ADS-B
Thu 05:42:41 AM 37.6340 21.9180 113° Southeast 559 643 37,000  Level FlightAware ADS-B
Thu 05:43:15 AM 37.6000 22.0240 112° Southeast 559 643 37,000  Level FlightAware ADS-B
Thu 05:43:53 AM 37.5610 22.1410 113° Southeast 559 643 37,000  Level FlightAware ADS-B
Thu 05:44:24 AM 37.5300 22.2310 113° Southeast 559 643 37,000  Level FlightAware ADS-B
Thu 05:45:01 AM 37.4930 22.3420 113° Southeast 559 643 37,000  Level FlightAware ADS-B
Thu 05:45:38 AM 37.4550 22.4560 113° Southeast 563 648 37,000  Level FlightAware ADS-B
Thu 05:46:11 AM 37.4230 22.5530 113° Southeast 563 648 37,000  Level FlightAware ADS-B
Thu 05:46:45 AM 37.3890 22.6520 113° Southeast 562 647 37,000  Level FlightAware ADS-B
Thu 05:47:22 AM 37.3500 22.7690 113° Southeast 561 646 37,000  Level FlightAware ADS-B
Thu 05:47:55 AM 37.3180 22.8630 113° Southeast 565 650 37,000  Level FlightAware ADS-B
Thu 05:48:29 AM 37.2810 22.9710 113° Southeast 565 650 37,000  Level FlightAware ADS-B
Thu 05:49:06 AM 37.2430 23.0830 113° Southeast 564 649 37,000  Level FlightAware ADS-B
Thu 05:49:43 AM 37.2060 23.1870 114° Southeast 564 649 37,000  Level FlightAware ADS-B
Thu 05:50:15 AM 37.1730 23.2840 113° Southeast 565 650 37,000  Level FlightAware ADS-B
Thu 05:50:52 AM 37.1340 23.3980 113° Southeast 564 649 37,000  Level FlightAware ADS-B
Thu 05:51:25 AM 37.1000 23.4940 114° Southeast 564 649 37,000  Level FlightAware ADS-B
Thu 05:51:59 AM 37.0640 23.5950 114° Southeast 562 647 37,000  Level FlightAware ADS-B
Thu 05:52:36 AM 37.0270 23.7050 113° Southeast 561 646 37,000  Level FlightAware ADS-B
Thu 05:53:13 AM 36.9870 23.8180 114° Southeast 558 642 37,000  Level FlightAware ADS-B
Thu 05:53:46 AM 36.9520 23.9150 114° Southeast 558 642 37,000  Level FlightAware ADS-B
Thu 05:54:23 AM 36.9140 24.0240 114° Southeast 556 640 37,000  Level FlightAware ADS-B
Thu 05:54:55 AM 36.8820 24.1150 114° Southeast 554 638 37,000  Level FlightAware ADS-B
Thu 05:55:31 AM 36.8430 24.2230 114° Southeast 555 639 37,000  Level FlightAware ADS-B
Thu 05:56:05 AM 36.8080 24.3200 114° Southeast 559 643 37,000  Level FlightAware ADS-B
Thu 05:56:44 AM 36.7670 24.4350 114° Southeast 560 644 37,000  Level FlightAware ADS-B
Thu 05:57:13 AM 36.7360 24.5240 113° Southeast 563 648 37,000  Level FlightAware ADS-B
Thu 05:57:51 AM 36.6950 24.6360 115° Southeast 562 647 37,000  Level FlightAware ADS-B
Thu 05:58:27 AM 36.6570 24.7420 114° Southeast 559 643 37,000  Level FlightAware ADS-B
Thu 05:59:00 AM 36.6230 24.8360 114° Southeast 556 640 37,000  Level FlightAware ADS-B
Thu 05:59:36 AM 36.5830 24.9430 115° Southeast 550 633 37,000  Level FlightAware ADS-B
Thu 06:00:13 AM 36.5460 25.0460 114° Southeast 546 628 37,000  Level FlightAware ADS-B
Thu 06:00:53 AM 36.5020 25.1660 114° Southeast 543 625 37,000  Level FlightAware ADS-B
Thu 06:01:29 AM 36.4640 25.2680 115° Southeast 543 625 37,000  Level FlightAware ADS-B
Thu 06:02:05 AM 36.4270 25.3700 114° Southeast 543 625 37,000  Level FlightAware ADS-B
Thu 06:02:37 AM 36.3940 25.4580 115° Southeast 542 624 37,000  Level FlightAware ADS-B
Thu 06:03:15 AM 36.3540 25.5650 115° Southeast 543 625 37,000  Level FlightAware ADS-B
Thu 06:03:49 AM 36.3180 25.6640 114° Southeast 544 626 37,000  Level FlightAware ADS-B
Thu 06:04:23 AM 36.2820 25.7610 115° Southeast 546 628 37,000  Level FlightAware ADS-B
Thu 06:04:59 AM 36.2430 25.8630 115° Southeast 546 628 37,000  Level FlightAware ADS-B
Thu 06:05:34 AM 36.2070 25.9590 115° Southeast 547 629 37,000  Level FlightAware ADS-B
Thu 06:06:10 AM 36.1670 26.0640 115° Southeast 546 628 37,000  Level FlightAware ADS-B
Thu 06:06:42 AM 36.1330 26.1540 115° Southeast 546 628 37,000  Level FlightAware ADS-B
Thu 06:07:20 AM 36.0920 26.2620 115° Southeast 543 625 37,000  Level FlightAware ADS-B
Thu 06:07:56 AM 36.0540 26.3600 116° Southeast 541 623 37,000  Level FlightAware ADS-B
Thu 06:08:28 AM 36.0200 26.4490 115° Southeast 541 623 37,000  Level FlightAware ADS-B
Thu 06:09:04 AM 35.9810 26.5520 115° Southeast 539 620 37,000  Level FlightAware ADS-B
Thu 06:09:40 AM 35.9430 26.6490 116° Southeast 538 619 37,000  Level FlightAware ADS-B
Thu 06:10:16 AM 35.9040 26.7490 116° Southeast 539 620 37,000  Level FlightAware ADS-B
Thu 06:10:49 AM 35.8730 26.8310 115° Southeast 539 620 37,000  Level FlightAware ADS-B
Thu 06:11:28 AM 35.8380 26.9270 114° Southeast 535 616 37,000  Level FlightAware ADS-B
Thu 06:12:20 AM 35.7820 27.0710 116° Southeast 534 615 37,000  Level FlightAware ADS-B
Thu 06:12:55 AM 35.7350 27.1860 117° Southeast 539 620 37,000  Level FlightAware ADS-B
Thu 06:13:30 AM 35.6950 27.2880 116° Southeast 537 618 37,000  Level FlightAware ADS-B
Thu 06:14:06 AM 35.6560 27.3870 116° Southeast 538 619 37,000  Level FlightAware ADS-B
Thu 06:14:38 AM 35.6210 27.4750 116° Southeast 538 619 37,000  Level FlightAware ADS-B
Thu 06:15:14 AM 35.5830 27.5710 116° Southeast 536 617 37,000  Level FlightAware ADS-B
Thu 06:15:51 AM 35.5430 27.6720 116° Southeast 538 619 37,000  Level FlightAware ADS-B
Thu 06:16:26 AM 35.5050 27.7650 117° Southeast 537 618 37,000  Level FlightAware ADS-B
Thu 06:16:58 AM 35.4700 27.8560 115° Southeast 537 618 37,000  Level FlightAware ADS-B
Thu 06:17:36 AM 35.4270 27.9620 116° Southeast 536 617 37,000  Level FlightAware ADS-B
Thu 06:18:12 AM 35.3870 28.0610 116° Southeast 536 617 37,000  Level FlightAware ADS-B
Thu 06:18:44 AM 35.3530 28.1450 116° Southeast 536 617 37,000  Level FlightAware ADS-B
Thu 06:19:33 AM 35.3040 28.2680 116° Southeast 535 616 37,000  Level FlightAware ADS-B
Thu 06:20:10 AM 35.2590 28.3780 117° Southeast 535 616 37,000  Level FlightAware ADS-B
Thu 06:20:41 AM 35.2240 28.4620 117° Southeast 535 616 37,000  Level FlightAware ADS-B
Thu 06:21:17 AM 35.1830 28.5630 116° Southeast 534 615 37,000  Level FlightAware ADS-B
Thu 06:21:49 AM 35.1490 28.6460 117° Southeast 533 613 37,000  Level FlightAware ADS-B
Thu 06:22:29 AM 35.1060 28.7510 117° Southeast 527 606 37,000  Level FlightAware ADS-B
Thu 06:23:00 AM 35.0750 28.8280 116° Southeast 526 605 37,000  Level FlightAware ADS-B
Thu 06:23:39 AM 35.0410 28.9180 115° Southeast 526 605 37,000  Level FlightAware ADS-B
Thu 06:23:50 AM 35.0190 28.9610 122° Southeast 642 739 37,000  Level FlightAware ADS-B
Thu 06:23:57 AM 35.0130 28.9750 118° Southeast 522 601 37,000  Level FlightAware ADS-B
Thu 06:24:40 AM 34.9620 29.1010 116° Southeast 520 598 37,000  Level FlightAware ADS-B
Thu 06:25:15 AM 34.9220 29.1960 117° Southeast 523 602 37,000  Level FlightAware ADS-B
Thu 06:25:59 AM 34.8740 29.3120 117° Southeast 520 598 37,000  Level FlightAware ADS-B
Thu 06:26:35 AM 34.8370 29.3980 118° Southeast 521 600 37,000  Level FlightAware ADS-B
Thu 06:27:07 AM 34.7990 29.4880 117° Southeast 525 604 37,000  Level FlightAware ADS-B
Thu 06:28:01 AM 34.7450 29.6200 116° Southeast 526 605 37,000  Level FlightAware ADS-B
Thu 06:28:35 AM 34.7030 29.7170 118° Southeast 528 608 37,000  Level FlightAware ADS-B
Thu 06:29:16 AM 34.6560 29.8280 117° Southeast 528 608 37,000  Level FlightAware ADS-B
Thu 06:29:57 AM 34.6140 29.9280 117° Southeast 529 609 37,000  Level FlightAware ADS-B
Thu 06:30:37 AM 34.5720 30.0260 117° Southeast 529 609 37,000  Level FlightAware ADS-B
Thu 06:31:13 AM 34.5380 30.1070 117° Southeast 529 609 37,000  Level FlightAware ADS-B
Thu 06:31:33 AM 34.4900 30.1810 128° Southeast 800 921 37,000  Level FlightAware ADS-B
Thu 06:31:38 AM 34.4850 30.1920 119° Southeast 37,000  Level FlightAware ADS-B
Thu 06:32:24 AM 34.4280 30.3120 120° Southeast 524 603 37,000  Level FlightAware ADS-B
Thu 06:32:59 AM 34.3880 30.3960 120° Southeast 523 602 37,000  Level FlightAware ADS-B
Thu 06:33:31 AM 34.3490 30.4780 120° Southeast 524 603 37,000  Level FlightAware ADS-B
Thu 06:34:10 AM 34.2990 30.5800 121° Southeast 525 604 37,000  Level FlightAware ADS-B
Thu 06:34:45 AM 34.2560 30.6700 120° Southeast 524 603 37,000  Level FlightAware ADS-B
Thu 06:35:15 AM 34.2190 30.7460 120° Southeast 525 604 37,000  Level FlightAware ADS-B
Thu 06:35:55 AM 34.1690 30.8510 120° Southeast 525 604 37,000  Level FlightAware ADS-B
Thu 06:36:25 AM 34.1330 30.9250 120° Southeast 525 604 37,000  Level FlightAware ADS-B
Thu 06:37:01 AM 34.0890 31.0160 120° Southeast 525 604 37,000  Level FlightAware ADS-B
Thu 06:37:35 AM 34.0450 31.1050 121° Southeast 524 603 37,000  Level FlightAware ADS-B
Thu 06:38:14 AM 33.9960 31.2040 121° Southeast 522 601 37,000  Level FlightAware ADS-B
Thu 06:38:50 AM 33.9560 31.2870 120° Southeast 520 598 37,000  Level FlightAware ADS-B
Thu 06:39:20 AM 33.9160 31.3670 121° Southeast 518 596 37,000  Level FlightAware ADS-B
Thu 06:39:55 AM 33.8720 31.4570 120° Southeast 517 595 37,000  Level FlightAware ADS-B
Thu 06:40:35 AM 33.8230 31.5540 121° Southeast 517 595 37,000  Level FlightAware ADS-B
Thu 06:41:09 AM 33.7810 31.6410 120° Southeast 518 596 37,000  Level FlightAware ADS-B
Thu 06:41:46 AM 33.7350 31.7330 121° Southeast 516 594 37,000  Level FlightAware ADS-B
Thu 06:42:16 AM 33.6970 31.8070 122° Southeast 515 593 37,000  Level FlightAware ADS-B
Thu 06:42:51 AM 33.6540 31.8940 121° Southeast 514 592 37,000  Level FlightAware ADS-B
Thu 06:43:33 AM 33.6040 31.9950 121° Southeast 514 592 37,000  Level FlightAware ADS-B
Thu 06:44:07 AM 33.5600 32.0830 121° Southeast 514 592 37,000  Level FlightAware ADS-B
Thu 06:44:48 AM 33.5120 32.1770 121° Southeast 514 592 37,000  Level FlightAware ADS-B
Thu 06:45:17 AM 33.4730 32.2550 121° Southeast 514 592 37,000  Level FlightAware ADS-B
Thu 06:45:53 AM 33.4290 32.3410 121° Southeast 513 590 37,000 -254 Level FlightAware ADS-B
Thu 06:46:28 AM 33.3890 32.4220 121° Southeast 507 583 36,700 -943 Descending FlightAware ADS-B
Thu 06:47:03 AM 33.3450 32.5080 121° Southeast 508 585 35,900 -1,280 Descending FlightAware ADS-B
Thu 06:47:43 AM 33.2970 32.6030 121° Southeast 503 579 35,100 -1,714 Descending FlightAware ADS-B
Thu 06:48:13 AM 33.2590 32.6760 122° Southeast 502 578 33,900 -2,182 Descending FlightAware ADS-B
Thu 06:48:49 AM 33.2170 32.7580 121° Southeast 492 566 32,700 -1,435 Descending FlightAware ADS-B
Thu 06:49:45 AM 33.1540 32.8810 121° Southeast 483 556 31,700 -1,451 Descending FlightAware ADS-B
Thu 06:50:20 AM 33.1160 32.9550 121° Southeast 467 537 30,500 -2,229 Descending FlightAware ADS-B
Thu 06:50:55 AM 33.0690 33.0450 122° Southeast 457 526 29,100 -2,132 Descending FlightAware ADS-B
Thu 06:51:36 AM 33.0270 33.1280 121° Southeast 446 513 27,800 -1,946 Descending FlightAware ADS-B
Thu 06:52:09 AM 32.9900 33.2000 121° Southeast 435 501 26,700 -1,379 Descending FlightAware ADS-B
Thu 06:53:03 AM 32.9380 33.2990 122° Southeast 426 490 25,800 -1,826 Descending FlightAware ADS-B
Thu 06:54:04 AM 32.8750 33.4200 122° Southeast 398 458 23,200 -2,298 Descending FlightAware ADS-B
Thu 06:54:37 AM 32.8440 33.4810 121° Southeast 388 447 22,200 -1,859 Descending FlightAware ADS-B
Thu 06:55:15 AM 32.8050 33.5540 122° Southeast 395 455 21,000 -1,784 Descending FlightAware ADS-B
Thu 06:55:51 AM 32.7710 33.6190 122° Southeast 401 461 20,000 -1,775 Descending FlightAware ADS-B
Thu 06:56:26 AM 32.7370 33.6850 121° Southeast 390 449 18,900 -1,739 Descending FlightAware ADS-B
Thu 06:57:00 AM 32.7040 33.7460 123° Southeast 379 436 18,000 -1,690 Descending FlightAware ADS-B
Thu 06:57:37 AM 32.6710 33.8090 122° Southeast 367 422 16,900 -1,644 Descending FlightAware ADS-B
Thu 06:58:13 AM 32.6390 33.8710 121° Southeast 357 411 16,000 -1,500 Descending FlightAware ADS-B
Thu 06:58:45 AM 32.6120 33.9200 123° Southeast 349 402 15,200 -1,588 Descending FlightAware ADS-B
Thu 06:59:21 AM 32.5800 33.9810 122° Southeast 341 392 14,200 -1,583 Descending FlightAware ADS-B
Thu 06:59:57 AM 32.5510 34.0360 122° Southeast 352 405 13,300 -1,606 Descending FlightAware ADS-B
Thu 07:00:32 AM 32.5190 34.0960 122° Southeast 344 396 12,300 -1,545 Descending FlightAware ADS-B
Thu 07:01:03 AM 32.4940 34.1430 122° Southeast 335 386 11,600 -1,475 Descending FlightAware ADS-B
Thu 07:01:33 AM 32.4640 34.1860 130° Southeast 327 376 10,800 -957 Descending FlightAware ADS-B
Thu 07:02:12 AM 32.4270 34.2310 134° Southeast 323 372 10,500 -237 Descending FlightAware ADS-B
Thu 07:02:49 AM 32.3940 34.2710 134° Southeast 323 372 10,500  Level FlightAware ADS-B
Thu 07:03:25 AM 32.3620 34.3100 134° Southeast 323 372 10,500  Level FlightAware ADS-B
Thu 07:06:00 AM 32.1199 34.6504 115° Southeast  Level FlightAware Approximate
Thu 07:07:00 AM 32.0433 34.7945 125° Southeast  Level FlightAware Approximate
Thu 07:08:00 AM 32.0000 34.8667 125° Southeast  Level FlightAware Approximate
Thu 07:09:00 AM 32.0095 34.8769 125° Southeast  Level Estimated
Thu 07:10:00 AM 32.0095 34.8769 125° Southeast  Level Estimated
Thu 07:11:00 AM 32.0095 34.8769 125° Southeast  Level Estimated
Thu 07:12:00 AM 32.0095 34.8769 125° Southeast  Level Estimated
Thu 07:13:00 AM 32.0095 34.8769 125° Southeast  Level Estimated
Thu 07:14:00 AM 32.0095 34.8769 125° Southeast  Level Estimated
Thu 07:15:00 AM 32.0095 34.8769 125° Southeast  Level Estimated
Thu 07:16:00 AM 32.0095 34.8769 125° Southeast  Level Estimated

Login

Don't have an account? Register now (free) for customized features, flight alerts, and more!